Time,TemperatureF,DewpointF,PressureIn,WindDirection,WindDirectionDegrees,WindSpeedMPH,WindSpeedGustMPH,Humidity,HourlyPrecipIn,Conditions,Clouds,dailyrainin,SoftwareType,DateUTC
2013-05-01 00:01:00,65.8,57.0,29.50,NNW,330,3.1,3.1,73,0.00,,,0.00,VWS V14.01,2013-05-01 04:01:00,
2013-05-01 00:06:00,65.7,56.8,29.50,West,261,3.6,3.6,73,0.00,,,0.00,VWS V14.01,2013-05-01 04:06:00,
2013-05-01 00:11:00,65.5,56.6,29.50,NW,323,3.1,3.6,73,0.00,,,0.00,VWS V14.01,2013-05-01 04:11:00,
2013-05-01 00:12:00,65.5,56.6,29.50,NW,323,3.1,3.1,73,0.00,,,0.00,VWS V14.01,2013-05-01 04:12:00,
2013-05-01 00:16:00,65.1,56.3,29.50,WNW,299,3.6,3.6,73,0.00,,,0.00,VWS V14.01,2013-05-01 04:16:00,
2013-05-01 00:17:00,65.1,56.3,29.50,WNW,299,3.6,3.6,73,0.00,,,0.00,VWS V14.01,2013-05-01 04:17:00,
2013-05-01 00:21:00,64.9,56.1,29.50,WNW,299,3.6,3.6,73,0.00,,,0.00,VWS V14.01,2013-05-01 04:21:00,
2013-05-01 00:22:00,64.8,55.9,29.50,WNW,299,3.6,3.6,73,0.00,,,0.00,VWS V14.01,2013-05-01 04:22:00,
2013-05-01 00:26:00,64.8,55.9,29.50,WSW,253,0.0,0.0,73,0.00,,,0.00,VWS V14.01,2013-05-01 04:26:00,
2013-05-01 00:27:00,64.8,55.9,29.50,WSW,253,0.0,0.0,73,0.00,,,0.00,VWS V14.01,2013-05-01 04:27:00,
2013-05-01 00:28:00,64.8,55.9,29.50,WNW,297,4.0,4.0,73,0.00,,,0.00,VWS V14.01,2013-05-01 04:28:00,
2013-05-01 00:31:00,64.6,55.7,29.50,WNW,303,0.0,0.0,73,0.00,,,0.00,VWS V14.01,2013-05-01 04:31:00,
2013-05-01 00:32:00,64.6,55.7,29.50,WNW,303,0.0,0.0,73,0.00,,,0.00,VWS V14.01,2013-05-01 04:32:00,
2013-05-01 00:33:00,64.6,55.7,29.50,WNW,303,0.0,0.0,73,0.00,,,0.00,VWS V14.01,2013-05-01 04:33:00,
2013-05-01 00:36:00,64.6,55.7,29.50,WNW,290,0.0,0.0,73,0.00,,,0.00,VWS V14.01,2013-05-01 04:36:00,
2013-05-01 00:37:00,64.4,55.6,29.50,WNW,290,0.0,0.0,73,0.00,,,0.00,VWS V14.01,2013-05-01 04:37:00,
2013-05-01 00:38:00,64.2,55.4,29.50,WNW,291,0.0,0.0,73,0.00,,,0.00,VWS V14.01,2013-05-01 04:38:00,
2013-05-01 00:41:00,64.2,55.4,29.50,WNW,291,0.0,0.0,73,0.00,,,0.00,VWS V14.01,2013-05-01 04:41:00,
2013-05-01 00:42:00,64.2,55.4,29.50,WNW,291,0.0,0.0,73,0.00,,,0.00,VWS V14.01,2013-05-01 04:42:00,
2013-05-01 00:43:00,64.2,55.4,29.50,SSW,206,2.7,2.7,73,0.00,,,0.00,VWS V14.01,2013-05-01 04:43:00,
2013-05-01 00:46:00,64.2,55.4,29.50,SSW,206,2.7,2.7,73,0.00,,,0.00,VWS V14.01,2013-05-01 04:46:00,
2013-05-01 00:47:00,64.2,55.4,29.50,SSW,206,2.7,2.7,73,0.00,,,0.00,VWS V14.01,2013-05-01 04:47:00,
2013-05-01 00:48:00,64.2,55.4,29.50,SSW,206,2.7,2.7,73,0.00,,,0.00,VWS V14.01,2013-05-01 04:48:00,
2013-05-01 00:51:00,64.2,55.4,29.50,WNW,289,4.0,4.0,73,0.00,,,0.00,VWS V14.01,2013-05-01 04:51:00,
2013-05-01 00:52:00,64.0,55.2,29.50,WNW,289,4.0,4.0,73,0.00,,,0.00,VWS V14.01,2013-05-01 04:52:00,
2013-05-01 00:53:00,64.0,55.2,29.50,WNW,289,4.0,4.0,73,0.00,,,0.00,VWS V14.01,2013-05-01 04:53:00,
2013-05-01 00:56:00,64.0,55.2,29.50,West,270,0.0,0.0,73,0.00,,,0.00,VWS V14.01,2013-05-01 04:56:00,
2013-05-01 00:57:00,64.0,55.2,29.50,West,270,0.0,0.0,73,0.00,,,0.00,VWS V14.01,2013-05-01 04:57:00,
2013-05-01 00:58:00,64.0,55.2,29.50,West,270,0.0,0.0,73,0.00,,,0.00,VWS V14.01,2013-05-01 04:58:00,
2013-05-01 01:02:00,63.9,55.0,29.50,WSW,254,3.6,3.6,73,0.00,,,0.00,VWS V14.01,2013-05-01 05:02:00,
2013-05-01 01:03:00,63.9,55.0,29.50,WSW,254,3.6,3.6,73,0.00,,,0.00,VWS V14.01,2013-05-01 05:03:00,
2013-05-01 01:07:00,63.7,54.9,29.50,WSW,254,3.6,3.6,73,0.00,,,0.00,VWS V14.01,2013-05-01 05:07:00,
2013-05-01 01:08:00,63.7,54.9,29.50,NNW,338,2.2,2.2,73,0.00,,,0.00,VWS V14.01,2013-05-01 05:08:00,
2013-05-01 01:09:00,63.7,54.9,29.50,NNW,338,2.2,2.2,73,0.00,,,0.00,VWS V14.01,2013-05-01 05:09:00,
2013-05-01 01:12:00,63.7,54.9,29.50,NNW,338,0.0,0.0,73,0.00,,,0.00,VWS V14.01,2013-05-01 05:12:00,
2013-05-01 01:13:00,63.3,54.5,29.50,NNW,338,0.0,0.0,73,0.00,,,0.00,VWS V14.01,2013-05-01 05:13:00,
2013-05-01 01:14:00,63.3,54.5,29.53,NNW,338,0.0,0.0,73,0.00,,,0.00,VWS V14.01,2013-05-01 05:14:00,
2013-05-01 01:17:00,63.3,54.5,29.53,NNW,338,0.0,0.0,73,0.00,,,0.00,VWS V14.01,2013-05-01 05:17:00,
2013-05-01 01:18:00,63.3,54.5,29.53,WNW,293,0.0,0.0,73,0.00,,,0.00,VWS V14.01,2013-05-01 05:18:00,
2013-05-01 01:19:00,63.3,54.5,29.53,WNW,293,0.0,0.0,73,0.00,,,0.00,VWS V14.01,2013-05-01 05:19:00,
2013-05-01 01:22:00,63.1,54.3,29.53,WNW,295,3.6,3.6,73,0.00,,,0.00,VWS V14.01,2013-05-01 05:22:00,
2013-05-01 01:23:00,63.1,54.3,29.53,WNW,295,3.6,3.6,73,0.00,,,0.00,VWS V14.01,2013-05-01 05:23:00,
2013-05-01 01:24:00,63.0,54.2,29.53,WNW,295,3.6,3.6,73,0.00,,,0.00,VWS V14.01,2013-05-01 05:24:00,
2013-05-01 01:27:00,63.0,54.2,29.53,WNW,295,3.6,3.6,73,0.00,,,0.00,VWS V14.01,2013-05-01 05:27:00,
2013-05-01 01:28:00,63.0,54.2,29.53,WNW,295,0.0,0.0,73,0.00,,,0.00,VWS V14.01,2013-05-01 05:28:00,
2013-05-01 01:29:00,62.8,54.4,29.53,WNW,295,0.0,0.0,74,0.00,,,0.00,VWS V14.01,2013-05-01 05:29:00,
2013-05-01 01:32:00,62.6,54.2,29.53,WNW,295,0.0,0.0,74,0.00,,,0.00,VWS V14.01,2013-05-01 05:32:00,
2013-05-01 01:33:00,62.6,54.2,29.53,WNW,295,0.0,0.0,74,0.00,,,0.00,VWS V14.01,2013-05-01 05:33:00,
2013-05-01 01:35:00,62.6,54.2,29.53,WNW,295,0.0,0.0,74,0.00,,,0.00,VWS V14.01,2013-05-01 05:35:00,
2013-05-01 01:37:00,62.6,54.2,29.53,WNW,295,0.0,0.0,74,0.00,,,0.00,VWS V14.01,2013-05-01 05:37:00,
2013-05-01 01:38:00,62.6,54.2,29.53,WNW,295,0.0,0.0,74,0.00,,,0.00,VWS V14.01,2013-05-01 05:38:00,
2013-05-01 01:39:00,62.6,54.2,29.53,WNW,295,0.0,0.0,74,0.00,,,0.00,VWS V14.01,2013-05-01 05:39:00,
2013-05-01 01:40:00,62.4,54.0,29.53,WNW,295,0.0,0.0,74,0.00,,,0.00,VWS V14.01,2013-05-01 05:40:00,
2013-05-01 01:42:00,62.4,54.0,29.53,NW,305,3.6,3.6,74,0.00,,,0.00,VWS V14.01,2013-05-01 05:42:00,
2013-05-01 01:43:00,62.4,54.0,29.53,NW,305,3.6,3.6,74,0.00,,,0.00,VWS V14.01,2013-05-01 05:43:00,
2013-05-01 01:44:00,62.4,54.0,29.53,WNW,287,3.1,3.6,74,0.00,,,0.00,VWS V14.01,2013-05-01 05:44:00,
2013-05-01 01:45:00,62.4,54.0,29.53,West,276,2.7,3.1,74,0.00,,,0.00,VWS V14.01,2013-05-01 05:45:00,
2013-05-01 01:48:00,62.4,54.0,29.53,West,276,2.7,2.7,74,0.00,,,0.00,VWS V14.01,2013-05-01 05:48:00,
2013-05-01 01:49:00,62.4,54.0,29.53,West,276,0.0,2.7,74,0.00,,,0.00,VWS V14.01,2013-05-01 05:49:00,
2013-05-01 01:50:00,62.4,54.0,29.53,West,276,0.0,2.7,74,0.00,,,0.00,VWS V14.01,2013-05-01 05:50:00,
2013-05-01 01:53:00,62.4,54.0,29.53,West,276,0.0,0.0,74,0.00,,,0.00,VWS V14.01,2013-05-01 05:53:00,
2013-05-01 01:54:00,62.4,54.0,29.53,West,275,0.0,0.0,74,0.00,,,0.00,VWS V14.01,2013-05-01 05:54:00,
2013-05-01 01:55:00,62.4,54.0,29.53,West,275,0.0,0.0,74,0.00,,,0.00,VWS V14.01,2013-05-01 05:55:00,
2013-05-01 01:58:00,62.1,53.7,29.53,West,275,0.0,0.0,74,0.00,,,0.00,VWS V14.01,2013-05-01 05:58:00,
2013-05-01 01:59:00,62.1,53.7,29.53,West,275,0.0,0.0,74,0.00,,,0.00,VWS V14.01,2013-05-01 05:59:00,
2013-05-01 02:00:00,62.1,53.7,29.53,West,275,0.0,0.0,74,0.00,,,0.00,VWS V14.01,2013-05-01 06:00:00,
2013-05-01 02:03:00,62.1,53.7,29.53,WSW,254,2.2,2.2,74,0.00,,,0.00,VWS V14.01,2013-05-01 06:03:00,
2013-05-01 02:04:00,62.1,53.7,29.53,WSW,254,2.2,2.2,74,0.00,,,0.00,VWS V14.01,2013-05-01 06:04:00,
2013-05-01 02:05:00,62.1,53.7,29.53,WSW,254,2.2,2.2,74,0.00,,,0.00,VWS V14.01,2013-05-01 06:05:00,
2013-05-01 02:06:00,62.1,53.7,29.53,WSW,254,2.2,2.2,74,0.00,,,0.00,VWS V14.01,2013-05-01 06:06:00,
2013-05-01 02:08:00,62.1,53.7,29.53,WSW,254,2.2,2.2,74,0.00,,,0.00,VWS V14.01,2013-05-01 06:08:00,
2013-05-01 02:09:00,62.1,53.7,29.53,WSW,254,2.2,2.2,74,0.00,,,0.00,VWS V14.01,2013-05-01 06:09:00,
2013-05-01 02:10:00,62.1,53.7,29.53,WSW,254,2.2,2.2,74,0.00,,,0.00,VWS V14.01,2013-05-01 06:10:00,
2013-05-01 02:11:00,61.9,53.5,29.53,WSW,254,2.2,2.2,74,0.00,,,0.00,VWS V14.01,2013-05-01 06:11:00,
2013-05-01 02:13:00,61.9,53.5,29.53,WSW,254,0.0,0.0,74,0.00,,,0.00,VWS V14.01,2013-05-01 06:13:00,
2013-05-01 02:14:00,61.9,53.5,29.53,SSW,211,0.0,0.0,74,0.00,,,0.00,VWS V14.01,2013-05-01 06:14:00,
2013-05-01 02:16:00,61.9,53.5,29.53,SSW,212,2.2,2.2,74,0.00,,,0.00,VWS V14.01,2013-05-01 06:16:00,
2013-05-01 02:19:00,61.9,53.5,29.53,SSW,212,0.0,0.0,74,0.00,,,0.00,VWS V14.01,2013-05-01 06:19:00,
2013-05-01 02:21:00,61.9,53.5,29.53,SSW,212,0.0,0.0,74,0.00,,,0.00,VWS V14.01,2013-05-01 06:21:00,
2013-05-01 02:24:00,61.5,53.5,29.53,SSW,212,0.0,0.0,75,0.00,,,0.00,VWS V14.01,2013-05-01 06:24:00,
2013-05-01 02:26:00,61.5,53.5,29.53,SSW,212,0.0,0.0,75,0.00,,,0.00,VWS V14.01,2013-05-01 06:26:00,
2013-05-01 02:29:00,61.5,53.5,29.53,SSW,212,0.0,0.0,75,0.00,,,0.00,VWS V14.01,2013-05-01 06:29:00,
2013-05-01 02:31:00,61.0,53.0,29.53,SSW,212,0.0,0.0,75,0.00,,,0.00,VWS V14.01,2013-05-01 06:31:00,
2013-05-01 02:34:00,60.8,52.8,29.53,SSW,212,0.0,0.0,75,0.00,,,0.00,VWS V14.01,2013-05-01 06:34:00,
2013-05-01 02:36:00,60.8,52.8,29.53,SSW,212,0.0,0.0,75,0.00,,,0.00,VWS V14.01,2013-05-01 06:36:00,
2013-05-01 02:39:00,60.4,52.8,29.50,SSW,212,0.0,0.0,76,0.00,,,0.00,VWS V14.01,2013-05-01 06:39:00,
2013-05-01 02:41:00,60.4,52.8,29.50,SSW,212,0.0,0.0,76,0.00,,,0.00,VWS V14.01,2013-05-01 06:41:00,
2013-05-01 02:44:00,60.3,52.7,29.50,SSW,212,0.0,0.0,76,0.00,,,0.00,VWS V14.01,2013-05-01 06:44:00,
2013-05-01 02:45:00,60.3,52.7,29.50,SSW,212,0.0,0.0,76,0.00,,,0.00,VWS V14.01,2013-05-01 06:45:00,
2013-05-01 02:46:00,60.3,52.7,29.50,SSW,212,0.0,0.0,76,0.00,,,0.00,VWS V14.01,2013-05-01 06:46:00,
2013-05-01 02:47:00,60.3,52.7,29.50,SSW,212,0.0,0.0,76,0.00,,,0.00,VWS V14.01,2013-05-01 06:47:00,
2013-05-01 02:49:00,59.9,52.7,29.50,SSW,212,0.0,0.0,77,0.00,,,0.00,VWS V14.01,2013-05-01 06:49:00,
2013-05-01 02:50:00,59.9,52.7,29.50,SSW,212,0.0,0.0,77,0.00,,,0.00,VWS V14.01,2013-05-01 06:50:00,
2013-05-01 02:51:00,59.9,52.7,29.50,SSW,212,0.0,0.0,77,0.00,,,0.00,VWS V14.01,2013-05-01 06:51:00,
2013-05-01 02:52:00,59.9,52.7,29.53,SSW,212,0.0,0.0,77,0.00,,,0.00,VWS V14.01,2013-05-01 06:52:00,
2013-05-01 02:54:00,59.9,52.7,29.53,SSW,212,0.0,0.0,77,0.00,,,0.00,VWS V14.01,2013-05-01 06:54:00,
2013-05-01 02:55:00,59.9,52.7,29.53,SSW,212,0.0,0.0,77,0.00,,,0.00,VWS V14.01,2013-05-01 06:55:00,
2013-05-01 02:56:00,59.5,52.3,29.53,SSW,212,0.0,0.0,77,0.00,,,0.00,VWS V14.01,2013-05-01 06:56:00,
2013-05-01 02:57:00,59.5,52.3,29.53,SSW,212,0.0,0.0,77,0.00,,,0.00,VWS V14.01,2013-05-01 06:57:00,
2013-05-01 02:59:00,59.4,52.2,29.53,SSW,212,0.0,0.0,77,0.00,,,0.00,VWS V14.01,2013-05-01 06:59:00,
2013-05-01 03:00:00,59.2,52.0,29.53,SSW,212,0.0,0.0,77,0.00,,,0.00,VWS V14.01,2013-05-01 07:00:00,
2013-05-01 03:01:00,59.2,52.0,29.53,SSW,212,0.0,0.0,77,0.00,,,0.00,VWS V14.01,2013-05-01 07:01:00,
2013-05-01 03:02:00,59.2,52.3,29.53,SSW,212,0.0,0.0,78,0.00,,,0.00,VWS V14.01,2013-05-01 07:02:00,
2013-05-01 03:04:00,59.0,52.2,29.53,SSW,212,0.0,0.0,78,0.00,,,0.00,VWS V14.01,2013-05-01 07:04:00,
2013-05-01 03:06:00,59.0,52.2,29.53,SSW,212,0.0,0.0,78,0.00,,,0.00,VWS V14.01,2013-05-01 07:06:00,
2013-05-01 03:07:00,59.0,52.2,29.53,SSW,212,0.0,0.0,78,0.00,,,0.00,VWS V14.01,2013-05-01 07:07:00,
2013-05-01 03:10:00,59.0,52.2,29.53,SSW,212,0.0,0.0,78,0.00,,,0.00,VWS V14.01,2013-05-01 07:10:00,
2013-05-01 03:11:00,59.0,52.2,29.53,SSW,212,0.0,0.0,78,0.00,,,0.00,VWS V14.01,2013-05-01 07:11:00,
2013-05-01 03:12:00,59.0,52.2,29.53,SSW,212,0.0,0.0,78,0.00,,,0.00,VWS V14.01,2013-05-01 07:12:00,
2013-05-01 03:15:00,58.5,52.3,29.53,SSW,212,0.0,0.0,80,0.00,,,0.00,VWS V14.01,2013-05-01 07:15:00,
2013-05-01 03:16:00,58.5,52.3,29.53,SSW,212,0.0,0.0,80,0.00,,,0.00,VWS V14.01,2013-05-01 07:16:00,
2013-05-01 03:17:00,58.5,52.3,29.53,SSW,212,0.0,0.0,80,0.00,,,0.00,VWS V14.01,2013-05-01 07:17:00,
2013-05-01 03:18:00,58.5,52.3,29.53,SSW,212,0.0,0.0,80,0.00,,,0.00,VWS V14.01,2013-05-01 07:18:00,
2013-05-01 03:20:00,58.3,52.5,29.53,SSW,212,0.0,0.0,81,0.00,,,0.00,VWS V14.01,2013-05-01 07:20:00,
2013-05-01 03:21:00,58.3,52.5,29.53,SSW,212,0.0,0.0,81,0.00,,,0.00,VWS V14.01,2013-05-01 07:21:00,
2013-05-01 03:22:00,58.3,52.5,29.53,SSW,212,0.0,0.0,81,0.00,,,0.00,VWS V14.01,2013-05-01 07:22:00,
2013-05-01 03:23:00,58.3,52.5,29.53,SSW,212,0.0,0.0,81,0.00,,,0.00,VWS V14.01,2013-05-01 07:23:00,
2013-05-01 03:25:00,58.1,52.3,29.53,SSW,212,0.0,0.0,81,0.00,,,0.00,VWS V14.01,2013-05-01 07:25:00,
2013-05-01 03:26:00,58.1,52.3,29.53,SSW,212,0.0,0.0,81,0.00,,,0.00,VWS V14.01,2013-05-01 07:26:00,
2013-05-01 03:27:00,58.1,52.3,29.53,SSW,212,0.0,0.0,81,0.00,,,0.00,VWS V14.01,2013-05-01 07:27:00,
2013-05-01 03:28:00,58.1,52.3,29.53,SSW,212,0.0,0.0,81,0.00,,,0.00,VWS V14.01,2013-05-01 07:28:00,
2013-05-01 03:31:00,58.1,52.6,29.53,SSW,212,0.0,0.0,82,0.00,,,0.00,VWS V14.01,2013-05-01 07:31:00,
2013-05-01 03:32:00,58.1,52.6,29.53,SSW,212,0.0,0.0,82,0.00,,,0.00,VWS V14.01,2013-05-01 07:32:00,
2013-05-01 03:33:00,58.1,52.6,29.53,SSW,212,0.0,0.0,82,0.00,,,0.00,VWS V14.01,2013-05-01 07:33:00,
2013-05-01 03:36:00,58.1,52.6,29.53,SSW,212,0.0,0.0,82,0.00,,,0.00,VWS V14.01,2013-05-01 07:36:00,
2013-05-01 03:37:00,58.1,52.6,29.53,SSW,212,0.0,0.0,82,0.00,,,0.00,VWS V14.01,2013-05-01 07:37:00,
2013-05-01 03:38:00,58.1,52.6,29.53,SSW,212,0.0,0.0,82,0.00,,,0.00,VWS V14.01,2013-05-01 07:38:00,
2013-05-01 03:41:00,57.9,52.8,29.53,SSW,212,0.0,0.0,83,0.00,,,0.00,VWS V14.01,2013-05-01 07:41:00,
2013-05-01 03:42:00,57.9,52.8,29.53,SSW,212,0.0,0.0,83,0.00,,,0.00,VWS V14.01,2013-05-01 07:42:00,
2013-05-01 03:43:00,57.9,52.8,29.53,SSW,212,0.0,0.0,83,0.00,,,0.00,VWS V14.01,2013-05-01 07:43:00,
2013-05-01 03:46:00,57.7,53.0,29.53,SSW,212,0.0,0.0,84,0.00,,,0.00,VWS V14.01,2013-05-01 07:46:00,
2013-05-01 03:47:00,57.7,53.0,29.53,SSW,212,0.0,0.0,84,0.00,,,0.00,VWS V14.01,2013-05-01 07:47:00,
2013-05-01 03:48:00,57.7,53.0,29.53,SSW,212,0.0,0.0,84,0.00,,,0.00,VWS V14.01,2013-05-01 07:48:00,
2013-05-01 03:52:00,57.7,53.0,29.53,SSW,212,0.0,0.0,84,0.00,,,0.00,VWS V14.01,2013-05-01 07:52:00,
2013-05-01 03:53:00,57.7,53.0,29.53,SSW,212,0.0,0.0,84,0.00,,,0.00,VWS V14.01,2013-05-01 07:53:00,
2013-05-01 03:57:00,57.7,53.3,29.53,SSW,212,0.0,0.0,85,0.00,,,0.00,VWS V14.01,2013-05-01 07:57:00,
2013-05-01 03:58:00,57.7,53.3,29.53,SSW,212,0.0,0.0,85,0.00,,,0.00,VWS V14.01,2013-05-01 07:58:00,
2013-05-01 03:59:00,57.7,53.3,29.53,SSW,212,0.0,0.0,85,0.00,,,0.00,VWS V14.01,2013-05-01 07:59:00,
2013-05-01 04:02:00,57.7,53.3,29.53,SSW,212,0.0,0.0,85,0.00,,,0.00,VWS V14.01,2013-05-01 08:02:00,
2013-05-01 04:03:00,57.7,53.3,29.53,SSW,212,0.0,0.0,85,0.00,,,0.00,VWS V14.01,2013-05-01 08:03:00,
2013-05-01 04:04:00,57.7,53.3,29.53,SSW,212,0.0,0.0,85,0.00,,,0.00,VWS V14.01,2013-05-01 08:04:00,
2013-05-01 04:07:00,57.7,53.3,29.53,SSW,212,0.0,0.0,85,0.00,,,0.00,VWS V14.01,2013-05-01 08:07:00,
2013-05-01 04:08:00,57.7,53.3,29.53,SSW,212,0.0,0.0,85,0.00,,,0.00,VWS V14.01,2013-05-01 08:08:00,
2013-05-01 04:09:00,57.7,53.3,29.53,SSW,212,0.0,0.0,85,0.00,,,0.00,VWS V14.01,2013-05-01 08:09:00,
2013-05-01 04:12:00,57.7,53.3,29.53,SSW,212,0.0,0.0,85,0.00,,,0.00,VWS V14.01,2013-05-01 08:12:00,
2013-05-01 04:13:00,57.7,53.3,29.53,SSW,212,0.0,0.0,85,0.00,,,0.00,VWS V14.01,2013-05-01 08:13:00,
2013-05-01 04:14:00,57.7,53.0,29.53,SSW,212,0.0,0.0,84,0.00,,,0.00,VWS V14.01,2013-05-01 08:14:00,
2013-05-01 04:17:00,57.7,53.0,29.53,SW,226,0.0,0.0,84,0.00,,,0.00,VWS V14.01,2013-05-01 08:17:00,
2013-05-01 04:18:00,57.7,53.0,29.53,SW,226,0.0,0.0,84,0.00,,,0.00,VWS V14.01,2013-05-01 08:18:00,
2013-05-01 04:19:00,57.7,53.0,29.53,SW,226,0.0,0.0,84,0.00,,,0.00,VWS V14.01,2013-05-01 08:19:00,
2013-05-01 04:22:00,57.9,53.1,29.53,SW,226,0.0,0.0,84,0.00,,,0.00,VWS V14.01,2013-05-01 08:22:00,
2013-05-01 04:23:00,57.9,53.1,29.53,SW,226,0.0,0.0,84,0.00,,,0.00,VWS V14.01,2013-05-01 08:23:00,
2013-05-01 04:24:00,57.9,53.1,29.53,SW,226,0.0,0.0,84,0.00,,,0.00,VWS V14.01,2013-05-01 08:24:00,
2013-05-01 04:27:00,57.9,53.1,29.53,SW,226,0.0,0.0,84,0.00,,,0.00,VWS V14.01,2013-05-01 08:27:00,
2013-05-01 04:28:00,57.9,53.1,29.53,SW,226,0.0,0.0,84,0.00,,,0.00,VWS V14.01,2013-05-01 08:28:00,
2013-05-01 04:29:00,57.9,53.1,29.53,SW,226,0.0,0.0,84,0.00,,,0.00,VWS V14.01,2013-05-01 08:29:00,
2013-05-01 04:32:00,57.9,53.1,29.53,SW,226,0.0,0.0,84,0.00,,,0.00,VWS V14.01,2013-05-01 08:32:00,
2013-05-01 04:33:00,57.9,53.1,29.53,SW,226,0.0,0.0,84,0.00,,,0.00,VWS V14.01,2013-05-01 08:33:00,
2013-05-01 04:34:00,57.9,53.1,29.53,SW,226,0.0,0.0,84,0.00,,,0.00,VWS V14.01,2013-05-01 08:34:00,
2013-05-01 04:35:00,57.9,53.1,29.53,SW,226,0.0,0.0,84,0.00,,,0.00,VWS V14.01,2013-05-01 08:35:00,
2013-05-01 04:37:00,57.9,53.1,29.53,SW,226,0.0,0.0,84,0.00,,,0.00,VWS V14.01,2013-05-01 08:37:00,
2013-05-01 04:38:00,57.9,53.1,29.53,SW,226,0.0,0.0,84,0.00,,,0.00,VWS V14.01,2013-05-01 08:38:00,
2013-05-01 04:39:00,57.9,53.1,29.53,SW,226,0.0,0.0,84,0.00,,,0.00,VWS V14.01,2013-05-01 08:39:00,
2013-05-01 04:40:00,57.9,53.1,29.53,SW,226,0.0,0.0,84,0.00,,,0.00,VWS V14.01,2013-05-01 08:40:00,
2013-05-01 04:42:00,57.9,53.1,29.53,SW,226,0.0,0.0,84,0.00,,,0.00,VWS V14.01,2013-05-01 08:42:00,
2013-05-01 04:43:00,57.9,53.1,29.53,SW,226,0.0,0.0,84,0.00,,,0.00,VWS V14.01,2013-05-01 08:43:00,
2013-05-01 04:44:00,57.9,53.1,29.53,SW,226,0.0,0.0,84,0.00,,,0.00,VWS V14.01,2013-05-01 08:44:00,
2013-05-01 04:45:00,57.9,53.1,29.53,SW,226,0.0,0.0,84,0.00,,,0.00,VWS V14.01,2013-05-01 08:45:00,
2013-05-01 04:47:00,57.9,53.1,29.53,SW,226,0.0,0.0,84,0.00,,,0.00,VWS V14.01,2013-05-01 08:47:00,
2013-05-01 04:48:00,57.9,53.1,29.53,SW,226,0.0,0.0,84,0.00,,,0.00,VWS V14.01,2013-05-01 08:48:00,
2013-05-01 04:49:00,57.9,53.1,29.53,SW,226,0.0,0.0,84,0.00,,,0.00,VWS V14.01,2013-05-01 08:49:00,
2013-05-01 04:50:00,57.9,53.1,29.53,SW,226,0.0,0.0,84,0.00,,,0.00,VWS V14.01,2013-05-01 08:50:00,
2013-05-01 04:53:00,57.9,53.1,29.53,SW,226,0.0,0.0,84,0.00,,,0.00,VWS V14.01,2013-05-01 08:53:00,
2013-05-01 04:54:00,57.9,53.1,29.56,SW,226,0.0,0.0,84,0.00,,,0.00,VWS V14.01,2013-05-01 08:54:00,
2013-05-01 04:55:00,57.7,53.0,29.56,SW,226,0.0,0.0,84,0.00,,,0.00,VWS V14.01,2013-05-01 08:55:00,
2013-05-01 04:58:00,57.7,53.0,29.56,SW,226,0.0,0.0,84,0.00,,,0.00,VWS V14.01,2013-05-01 08:58:00,
2013-05-01 04:59:00,57.6,52.8,29.56,SW,226,0.0,0.0,84,0.00,,,0.00,VWS V14.01,2013-05-01 08:59:00,
2013-05-01 05:00:00,57.6,52.8,29.56,SW,226,0.0,0.0,84,0.00,,,0.00,VWS V14.01,2013-05-01 09:00:00,
2013-05-01 05:03:00,57.6,52.8,29.56,SW,226,0.0,0.0,84,0.00,,,0.00,VWS V14.01,2013-05-01 09:03:00,
2013-05-01 05:04:00,57.6,52.8,29.56,SW,226,0.0,0.0,84,0.00,,,0.00,VWS V14.01,2013-05-01 09:04:00,
2013-05-01 05:06:00,57.6,52.8,29.56,SW,226,0.0,0.0,84,0.00,,,0.00,VWS V14.01,2013-05-01 09:06:00,
2013-05-01 05:08:00,57.6,52.8,29.56,SW,226,0.0,0.0,84,0.00,,,0.00,VWS V14.01,2013-05-01 09:08:00,
2013-05-01 05:10:00,57.6,52.8,29.56,SW,226,0.0,0.0,84,0.00,,,0.00,VWS V14.01,2013-05-01 09:10:00,
2013-05-01 05:11:00,57.6,52.8,29.56,SW,226,0.0,0.0,84,0.00,,,0.00,VWS V14.01,2013-05-01 09:11:00,
2013-05-01 05:13:00,57.4,52.6,29.56,SW,226,0.0,0.0,84,0.00,,,0.00,VWS V14.01,2013-05-01 09:13:00,
2013-05-01 05:14:00,57.4,52.6,29.56,SW,226,0.0,0.0,84,0.00,,,0.00,VWS V14.01,2013-05-01 09:14:00,
2013-05-01 05:15:00,57.4,52.6,29.56,SW,226,0.0,0.0,84,0.00,,,0.00,VWS V14.01,2013-05-01 09:15:00,
2013-05-01 05:16:00,57.4,52.6,29.56,SW,226,0.0,0.0,84,0.00,,,0.00,VWS V14.01,2013-05-01 09:16:00,
2013-05-01 05:18:00,57.4,52.6,29.56,SW,226,0.0,0.0,84,0.00,,,0.00,VWS V14.01,2013-05-01 09:18:00,
2013-05-01 05:19:00,57.2,52.4,29.56,SW,226,0.0,0.0,84,0.00,,,0.00,VWS V14.01,2013-05-01 09:19:00,
2013-05-01 05:20:00,57.2,52.4,29.56,SW,226,0.0,0.0,84,0.00,,,0.00,VWS V14.01,2013-05-01 09:20:00,
2013-05-01 05:21:00,57.2,52.4,29.56,SW,226,0.0,0.0,84,0.00,,,0.00,VWS V14.01,2013-05-01 09:21:00,
2013-05-01 05:23:00,57.2,52.4,29.56,SW,226,0.0,0.0,84,0.00,,,0.00,VWS V14.01,2013-05-01 09:23:00,
2013-05-01 05:24:00,57.2,52.4,29.56,SW,226,0.0,0.0,84,0.00,,,0.00,VWS V14.01,2013-05-01 09:24:00,
2013-05-01 05:25:00,57.2,52.4,29.56,SW,226,0.0,0.0,84,0.00,,,0.00,VWS V14.01,2013-05-01 09:25:00,
2013-05-01 05:26:00,57.2,52.4,29.56,SW,226,0.0,0.0,84,0.00,,,0.00,VWS V14.01,2013-05-01 09:26:00,
2013-05-01 05:28:00,57.2,52.4,29.56,SW,226,0.0,0.0,84,0.00,,,0.00,VWS V14.01,2013-05-01 09:28:00,
2013-05-01 05:30:00,57.2,52.4,29.56,SW,226,0.0,0.0,84,0.00,,,0.00,VWS V14.01,2013-05-01 09:30:00,
2013-05-01 05:32:00,57.0,52.6,29.56,SW,226,0.0,0.0,85,0.00,,,0.00,VWS V14.01,2013-05-01 09:32:00,
2013-05-01 05:33:00,57.0,52.6,29.56,SW,226,0.0,0.0,85,0.00,,,0.00,VWS V14.01,2013-05-01 09:33:00,
2013-05-01 05:35:00,57.0,52.6,29.56,SW,226,0.0,0.0,85,0.00,,,0.00,VWS V14.01,2013-05-01 09:35:00,
2013-05-01 05:37:00,57.0,52.6,29.56,SW,226,0.0,0.0,85,0.00,,,0.00,VWS V14.01,2013-05-01 09:37:00,
2013-05-01 05:38:00,57.0,52.6,29.56,SW,226,0.0,0.0,85,0.00,,,0.00,VWS V14.01,2013-05-01 09:38:00,
2013-05-01 05:40:00,57.0,52.6,29.56,SW,226,0.0,0.0,85,0.00,,,0.00,VWS V14.01,2013-05-01 09:40:00,
2013-05-01 05:42:00,56.8,52.4,29.56,SW,226,0.0,0.0,85,0.00,,,0.00,VWS V14.01,2013-05-01 09:42:00,
2013-05-01 05:43:00,56.8,52.4,29.56,SW,226,0.0,0.0,85,0.00,,,0.00,VWS V14.01,2013-05-01 09:43:00,
2013-05-01 05:45:00,56.8,52.4,29.56,SW,226,0.0,0.0,85,0.00,,,0.00,VWS V14.01,2013-05-01 09:45:00,
2013-05-01 05:47:00,56.8,52.4,29.56,SW,226,0.0,0.0,85,0.00,,,0.00,VWS V14.01,2013-05-01 09:47:00,
2013-05-01 05:48:00,56.8,52.7,29.56,SW,226,0.0,0.0,86,0.00,,,0.00,VWS V14.01,2013-05-01 09:48:00,
2013-05-01 05:50:00,56.8,52.7,29.56,SW,226,0.0,0.0,86,0.00,,,0.00,VWS V14.01,2013-05-01 09:50:00,
2013-05-01 05:51:00,56.8,52.7,29.56,SW,226,0.0,0.0,86,0.00,,,0.00,VWS V14.01,2013-05-01 09:51:00,
2013-05-01 05:52:00,56.8,52.7,29.56,SW,226,0.0,0.0,86,0.00,,,0.00,VWS V14.01,2013-05-01 09:52:00,
2013-05-01 05:53:00,56.8,52.7,29.56,SW,226,0.0,0.0,86,0.00,,,0.00,VWS V14.01,2013-05-01 09:53:00,
2013-05-01 05:55:00,56.8,52.7,29.56,SW,226,0.0,0.0,86,0.00,,,0.00,VWS V14.01,2013-05-01 09:55:00,
2013-05-01 05:56:00,56.8,52.7,29.56,SW,226,0.0,0.0,86,0.00,,,0.00,VWS V14.01,2013-05-01 09:56:00,
2013-05-01 05:57:00,56.7,52.5,29.56,SW,226,0.0,0.0,86,0.00,,,0.00,VWS V14.01,2013-05-01 09:57:00,
2013-05-01 05:59:00,56.7,52.5,29.56,SW,226,0.0,0.0,86,0.00,,,0.00,VWS V14.01,2013-05-01 09:59:00,
2013-05-01 06:00:00,56.5,52.3,29.56,SW,226,0.0,0.0,86,0.00,,,0.00,VWS V14.01,2013-05-01 10:00:00,
2013-05-01 06:01:00,56.5,52.3,29.56,SW,226,0.0,0.0,86,0.00,,,0.00,VWS V14.01,2013-05-01 10:01:00,
2013-05-01 06:02:00,56.5,52.3,29.56,SW,226,0.0,0.0,86,0.00,,,0.00,VWS V14.01,2013-05-01 10:02:00,
2013-05-01 06:04:00,56.5,52.3,29.56,SW,226,0.0,0.0,86,0.00,,,0.00,VWS V14.01,2013-05-01 10:04:00,
2013-05-01 06:05:00,56.3,52.2,29.56,SW,226,0.0,0.0,86,0.00,,,0.00,VWS V14.01,2013-05-01 10:05:00,
2013-05-01 06:06:00,56.3,52.2,29.56,SW,226,0.0,0.0,86,0.00,,,0.00,VWS V14.01,2013-05-01 10:06:00,
2013-05-01 06:07:00,56.3,52.2,29.56,SW,226,0.0,0.0,86,0.00,,,0.00,VWS V14.01,2013-05-01 10:07:00,
2013-05-01 06:09:00,56.3,52.2,29.56,SW,226,0.0,0.0,86,0.00,,,0.00,VWS V14.01,2013-05-01 10:09:00,
2013-05-01 06:10:00,56.3,52.2,29.56,SW,226,0.0,0.0,86,0.00,,,0.00,VWS V14.01,2013-05-01 10:10:00,
2013-05-01 06:11:00,56.3,52.2,29.56,SW,226,0.0,0.0,86,0.00,,,0.00,VWS V14.01,2013-05-01 10:11:00,
2013-05-01 06:12:00,56.3,52.2,29.56,SW,226,0.0,0.0,86,0.00,,,0.00,VWS V14.01,2013-05-01 10:12:00,
2013-05-01 06:14:00,56.3,52.2,29.56,SW,226,0.0,0.0,86,0.00,,,0.00,VWS V14.01,2013-05-01 10:14:00,
2013-05-01 06:15:00,56.3,52.5,29.56,SW,226,0.0,0.0,87,0.00,,,0.00,VWS V14.01,2013-05-01 10:15:00,
2013-05-01 06:16:00,56.3,52.5,29.56,SW,226,0.0,0.0,87,0.00,,,0.00,VWS V14.01,2013-05-01 10:16:00,
2013-05-01 06:17:00,56.3,52.5,29.56,SW,226,0.0,0.0,87,0.00,,,0.00,VWS V14.01,2013-05-01 10:17:00,
2013-05-01 06:19:00,56.3,52.5,29.56,SW,226,0.0,0.0,87,0.00,,,0.00,VWS V14.01,2013-05-01 10:19:00,
2013-05-01 06:20:00,56.3,52.5,29.56,SW,226,0.0,0.0,87,0.00,,,0.00,VWS V14.01,2013-05-01 10:20:00,
2013-05-01 06:21:00,56.3,52.5,29.56,SW,226,0.0,0.0,87,0.00,,,0.00,VWS V14.01,2013-05-01 10:21:00,
2013-05-01 06:23:00,56.3,52.5,29.56,SW,226,0.0,0.0,87,0.00,,,0.00,VWS V14.01,2013-05-01 10:23:00,
2013-05-01 06:24:00,56.3,52.8,29.56,SW,226,0.0,0.0,88,0.00,,,0.00,VWS V14.01,2013-05-01 10:24:00,
2013-05-01 06:25:00,56.3,52.8,29.56,SW,226,0.0,0.0,88,0.00,,,0.00,VWS V14.01,2013-05-01 10:25:00,
2013-05-01 06:26:00,56.3,52.8,29.56,SW,226,0.0,0.0,88,0.00,,,0.00,VWS V14.01,2013-05-01 10:26:00,
2013-05-01 06:28:00,56.3,52.8,29.56,SW,226,0.0,0.0,88,0.00,,,0.00,VWS V14.01,2013-05-01 10:28:00,
2013-05-01 06:29:00,56.3,52.8,29.56,SW,226,0.0,0.0,88,0.00,,,0.00,VWS V14.01,2013-05-01 10:29:00,
2013-05-01 06:30:00,56.3,52.8,29.56,SW,226,0.0,0.0,88,0.00,,,0.00,VWS V14.01,2013-05-01 10:30:00,
2013-05-01 06:31:00,56.3,52.8,29.56,SW,226,0.0,0.0,88,0.00,,,0.00,VWS V14.01,2013-05-01 10:31:00,
2013-05-01 06:33:00,56.3,52.8,29.56,SW,226,0.0,0.0,88,0.00,,,0.00,VWS V14.01,2013-05-01 10:33:00,
2013-05-01 06:34:00,56.3,52.8,29.56,SW,226,0.0,0.0,88,0.00,,,0.00,VWS V14.01,2013-05-01 10:34:00,
2013-05-01 06:35:00,56.3,52.8,29.56,SW,226,0.0,0.0,88,0.00,,,0.00,VWS V14.01,2013-05-01 10:35:00,
2013-05-01 06:36:00,56.3,52.8,29.56,SW,226,0.0,0.0,88,0.00,,,0.00,VWS V14.01,2013-05-01 10:36:00,
2013-05-01 06:38:00,56.3,52.8,29.56,SW,226,0.0,0.0,88,0.00,,,0.00,VWS V14.01,2013-05-01 10:38:00,
2013-05-01 06:40:00,56.3,52.8,29.56,SW,226,0.0,0.0,88,0.00,,,0.00,VWS V14.01,2013-05-01 10:40:00,
2013-05-01 06:41:00,56.1,52.6,29.56,SW,226,0.0,0.0,88,0.00,,,0.00,VWS V14.01,2013-05-01 10:41:00,
2013-05-01 06:42:00,56.1,52.6,29.56,SW,226,0.0,0.0,88,0.00,,,0.00,VWS V14.01,2013-05-01 10:42:00,
2013-05-01 06:43:00,56.1,52.6,29.56,SW,226,0.0,0.0,88,0.00,,,0.00,VWS V14.01,2013-05-01 10:43:00,
2013-05-01 06:45:00,56.1,52.6,29.56,SW,226,0.0,0.0,88,0.00,,,0.00,VWS V14.01,2013-05-01 10:45:00,
2013-05-01 06:46:00,56.1,52.6,29.56,SW,226,0.0,0.0,88,0.00,,,0.00,VWS V14.01,2013-05-01 10:46:00,
2013-05-01 06:47:00,56.1,52.6,29.56,SW,226,0.0,0.0,88,0.00,,,0.00,VWS V14.01,2013-05-01 10:47:00,
2013-05-01 06:48:00,56.1,52.6,29.56,SW,226,0.0,0.0,88,0.00,,,0.00,VWS V14.01,2013-05-01 10:48:00,
2013-05-01 06:50:00,55.9,52.8,29.56,SW,226,0.0,0.0,89,0.00,,,0.00,VWS V14.01,2013-05-01 10:50:00,
2013-05-01 06:51:00,55.9,52.8,29.56,SW,226,0.0,0.0,89,0.00,,,0.00,VWS V14.01,2013-05-01 10:51:00,
2013-05-01 06:52:00,55.9,52.8,29.56,SW,226,0.0,0.0,89,0.00,,,0.00,VWS V14.01,2013-05-01 10:52:00,
2013-05-01 06:54:00,55.8,52.6,29.56,SW,226,0.0,0.0,89,0.00,,,0.00,VWS V14.01,2013-05-01 10:54:00,
2013-05-01 06:55:00,55.8,52.6,29.56,SW,226,0.0,0.0,89,0.00,,,0.00,VWS V14.01,2013-05-01 10:55:00,
2013-05-01 06:57:00,55.8,52.6,29.56,SW,226,0.0,0.0,89,0.00,,,0.00,VWS V14.01,2013-05-01 10:57:00,
2013-05-01 06:59:00,55.8,52.6,29.56,SW,226,0.0,0.0,89,0.00,,,0.00,VWS V14.01,2013-05-01 10:59:00,
2013-05-01 07:00:00,55.8,52.6,29.56,SW,226,0.0,0.0,89,0.00,,,0.00,VWS V14.01,2013-05-01 11:00:00,
2013-05-01 07:02:00,55.8,52.6,29.59,SW,226,0.0,0.0,89,0.00,,,0.00,VWS V14.01,2013-05-01 11:02:00,
2013-05-01 07:04:00,55.8,52.6,29.59,SW,226,0.0,0.0,89,0.00,,,0.00,VWS V14.01,2013-05-01 11:04:00,
2013-05-01 07:05:00,55.8,52.6,29.59,SW,226,0.0,0.0,89,0.00,,,0.00,VWS V14.01,2013-05-01 11:05:00,
2013-05-01 07:07:00,55.6,52.7,29.59,SW,226,0.0,0.0,90,0.00,,,0.00,VWS V14.01,2013-05-01 11:07:00,
2013-05-01 07:09:00,55.6,52.7,29.59,SW,226,0.0,0.0,90,0.00,,,0.00,VWS V14.01,2013-05-01 11:09:00,
2013-05-01 07:10:00,55.6,52.7,29.59,SW,226,0.0,0.0,90,0.00,,,0.00,VWS V14.01,2013-05-01 11:10:00,
2013-05-01 07:12:00,55.6,52.7,29.59,SW,226,0.0,0.0,90,0.00,,,0.00,VWS V14.01,2013-05-01 11:12:00,
2013-05-01 07:15:00,55.8,53.2,29.59,SW,226,0.0,0.0,91,0.00,,,0.00,VWS V14.01,2013-05-01 11:15:00,
2013-05-01 07:17:00,55.8,53.2,29.59,SW,226,0.0,0.0,91,0.00,,,0.00,VWS V14.01,2013-05-01 11:17:00,
2013-05-01 07:20:00,55.8,53.2,29.59,SW,226,0.0,0.0,91,0.00,,,0.00,VWS V14.01,2013-05-01 11:20:00,
2013-05-01 07:21:00,55.8,53.2,29.59,SW,226,0.0,0.0,91,0.00,,,0.00,VWS V14.01,2013-05-01 11:21:00,
2013-05-01 07:22:00,55.8,53.2,29.59,SW,226,0.0,0.0,91,0.00,,,0.00,VWS V14.01,2013-05-01 11:22:00,
2013-05-01 07:23:00,55.9,53.4,29.59,SW,226,0.0,0.0,91,0.00,,,0.00,VWS V14.01,2013-05-01 11:23:00,
2013-05-01 07:25:00,55.9,53.4,29.59,SW,226,0.0,0.0,91,0.00,,,0.00,VWS V14.01,2013-05-01 11:25:00,
2013-05-01 07:26:00,55.9,53.4,29.59,SW,226,0.0,0.0,91,0.00,,,0.00,VWS V14.01,2013-05-01 11:26:00,
2013-05-01 07:27:00,55.9,53.4,29.59,SW,226,0.0,0.0,91,0.00,,,0.00,VWS V14.01,2013-05-01 11:27:00,
2013-05-01 07:28:00,55.9,53.4,29.59,SW,226,0.0,0.0,91,0.00,,,0.00,VWS V14.01,2013-05-01 11:28:00,
2013-05-01 07:30:00,55.9,53.4,29.59,SW,226,0.0,0.0,91,0.00,,,0.00,VWS V14.01,2013-05-01 11:30:00,
2013-05-01 07:31:00,55.9,53.4,29.59,SW,226,0.0,0.0,91,0.00,,,0.00,VWS V14.01,2013-05-01 11:31:00,
2013-05-01 07:32:00,56.3,54.0,29.59,SW,226,0.0,0.0,92,0.00,,,0.00,VWS V14.01,2013-05-01 11:32:00,
2013-05-01 07:33:00,56.3,54.0,29.59,SW,226,0.0,0.0,92,0.00,,,0.00,VWS V14.01,2013-05-01 11:33:00,
2013-05-01 07:35:00,56.3,54.0,29.59,SW,226,0.0,0.0,92,0.00,,,0.00,VWS V14.01,2013-05-01 11:35:00,
2013-05-01 07:36:00,56.3,54.0,29.59,SW,226,0.0,0.0,92,0.00,,,0.00,VWS V14.01,2013-05-01 11:36:00,
2013-05-01 07:37:00,56.3,54.0,29.59,SW,226,0.0,0.0,92,0.00,,,0.00,VWS V14.01,2013-05-01 11:37:00,
2013-05-01 07:38:00,56.3,54.0,29.59,SW,226,0.0,0.0,92,0.00,,,0.00,VWS V14.01,2013-05-01 11:38:00,
2013-05-01 07:40:00,56.3,54.0,29.59,SW,226,0.0,0.0,92,0.00,,,0.00,VWS V14.01,2013-05-01 11:40:00,
2013-05-01 07:41:00,56.3,54.0,29.59,SW,226,0.0,0.0,92,0.00,,,0.00,VWS V14.01,2013-05-01 11:41:00,
2013-05-01 07:42:00,56.7,54.7,29.59,SW,226,0.0,0.0,93,0.00,,,0.00,VWS V14.01,2013-05-01 11:42:00,
2013-05-01 07:43:00,56.8,54.8,29.59,SW,226,0.0,0.0,93,0.00,,,0.00,VWS V14.01,2013-05-01 11:43:00,
2013-05-01 07:45:00,56.8,54.8,29.59,SW,226,0.0,0.0,93,0.00,,,0.00,VWS V14.01,2013-05-01 11:45:00,
2013-05-01 07:46:00,56.8,54.8,29.59,SW,226,0.0,0.0,93,0.00,,,0.00,VWS V14.01,2013-05-01 11:46:00,
2013-05-01 07:47:00,56.8,54.8,29.59,SW,226,0.0,0.0,93,0.00,,,0.00,VWS V14.01,2013-05-01 11:47:00,
2013-05-01 07:48:00,56.8,54.8,29.59,SW,226,0.0,0.0,93,0.00,,,0.00,VWS V14.01,2013-05-01 11:48:00,
2013-05-01 07:50:00,56.8,54.8,29.59,SW,226,0.0,0.0,93,0.00,,,0.00,VWS V14.01,2013-05-01 11:50:00,
2013-05-01 07:51:00,56.8,54.8,29.59,SW,226,0.0,0.0,93,0.00,,,0.00,VWS V14.01,2013-05-01 11:51:00,
2013-05-01 07:52:00,56.8,54.8,29.59,SW,226,0.0,0.0,93,0.00,,,0.00,VWS V14.01,2013-05-01 11:52:00,
2013-05-01 07:53:00,56.8,54.8,29.59,SW,226,0.0,0.0,93,0.00,,,0.00,VWS V14.01,2013-05-01 11:53:00,
2013-05-01 07:54:00,56.8,54.8,29.59,SW,226,0.0,0.0,93,0.00,,,0.00,VWS V14.01,2013-05-01 11:54:00,
2013-05-01 07:56:00,56.8,54.8,29.59,SW,226,0.0,0.0,93,0.00,,,0.00,VWS V14.01,2013-05-01 11:56:00,
2013-05-01 07:57:00,56.8,54.8,29.59,SW,226,0.0,0.0,93,0.00,,,0.00,VWS V14.01,2013-05-01 11:57:00,
2013-05-01 07:58:00,56.8,54.8,29.59,SW,226,0.0,0.0,93,0.00,,,0.00,VWS V14.01,2013-05-01 11:58:00,
2013-05-01 07:59:00,58.3,56.6,29.59,SW,226,0.0,0.0,94,0.00,,,0.00,VWS V14.01,2013-05-01 11:59:00,
2013-05-01 08:01:00,58.3,56.6,29.59,SW,236,0.0,0.0,94,0.00,,,0.00,VWS V14.01,2013-05-01 12:01:00,
2013-05-01 08:03:00,58.8,57.1,29.59,SW,236,0.0,0.0,94,0.00,,,0.00,VWS V14.01,2013-05-01 12:03:00,
2013-05-01 08:04:00,58.8,57.1,29.59,SW,236,0.0,0.0,94,0.00,,,0.00,VWS V14.01,2013-05-01 12:04:00,
2013-05-01 08:06:00,58.8,57.1,29.59,NNW,329,0.0,0.0,94,0.00,,,0.00,VWS V14.01,2013-05-01 12:06:00,
2013-05-01 08:08:00,59.5,57.5,29.59,NNW,328,0.0,0.0,93,0.00,,,0.00,VWS V14.01,2013-05-01 12:08:00,
2013-05-01 08:09:00,59.7,57.4,29.59,NNW,328,0.0,0.0,92,0.00,,,0.00,VWS V14.01,2013-05-01 12:09:00,
2013-05-01 08:11:00,59.7,57.4,29.59,NW,325,0.0,0.0,92,0.00,,,0.00,VWS V14.01,2013-05-01 12:11:00,
2013-05-01 08:13:00,59.7,57.4,29.59,West,260,0.0,0.0,92,0.00,,,0.00,VWS V14.01,2013-05-01 12:13:00,
2013-05-01 08:14:00,59.7,57.4,29.59,West,260,0.0,0.0,92,0.00,,,0.00,VWS V14.01,2013-05-01 12:14:00,
2013-05-01 08:16:00,60.6,57.4,29.59,West,260,0.0,0.0,89,0.00,,,0.00,VWS V14.01,2013-05-01 12:16:00,
2013-05-01 08:18:00,60.6,57.4,29.59,West,260,0.0,0.0,89,0.00,,,0.00,VWS V14.01,2013-05-01 12:18:00,
2013-05-01 08:19:00,60.6,57.4,29.59,NW,317,0.0,0.0,89,0.00,,,0.00,VWS V14.01,2013-05-01 12:19:00,
2013-05-01 08:21:00,61.3,57.4,29.59,West,280,0.0,0.0,87,0.00,,,0.00,VWS V14.01,2013-05-01 12:21:00,
2013-05-01 08:22:00,61.3,57.4,29.59,West,280,0.0,0.0,87,0.00,,,0.00,VWS V14.01,2013-05-01 12:22:00,
2013-05-01 08:23:00,61.3,57.4,29.59,West,280,0.0,0.0,87,0.00,,,0.00,VWS V14.01,2013-05-01 12:23:00,
2013-05-01 08:24:00,61.3,57.4,29.59,West,280,0.0,0.0,87,0.00,,,0.00,VWS V14.01,2013-05-01 12:24:00,
2013-05-01 08:26:00,61.9,57.3,29.59,West,280,0.0,0.0,85,0.00,,,0.00,VWS V14.01,2013-05-01 12:26:00,
2013-05-01 08:27:00,61.9,57.3,29.59,West,280,0.0,0.0,85,0.00,,,0.00,VWS V14.01,2013-05-01 12:27:00,
2013-05-01 08:28:00,61.9,57.3,29.59,WNW,301,0.0,0.0,85,0.00,,,0.00,VWS V14.01,2013-05-01 12:28:00,
2013-05-01 08:29:00,61.9,57.3,29.59,WNW,301,0.0,0.0,85,0.00,,,0.00,VWS V14.01,2013-05-01 12:29:00,
2013-05-01 08:31:00,61.9,57.3,29.59,WNW,301,0.0,0.0,85,0.00,,,0.00,VWS V14.01,2013-05-01 12:31:00,
2013-05-01 08:32:00,61.9,57.3,29.59,NW,306,0.0,0.0,85,0.00,,,0.00,VWS V14.01,2013-05-01 12:32:00,
2013-05-01 08:33:00,63.0,57.4,29.59,NW,306,0.0,0.0,82,0.00,,,0.00,VWS V14.01,2013-05-01 12:33:00,
2013-05-01 08:34:00,63.0,57.4,29.59,NW,306,0.0,0.0,82,0.00,,,0.00,VWS V14.01,2013-05-01 12:34:00,
2013-05-01 08:37:00,63.3,57.4,29.59,West,268,0.0,0.0,81,0.00,,,0.00,VWS V14.01,2013-05-01 12:37:00,
2013-05-01 08:38:00,63.3,57.4,29.59,West,268,0.0,0.0,81,0.00,,,0.00,VWS V14.01,2013-05-01 12:38:00,
2013-05-01 08:39:00,63.3,57.4,29.59,West,268,0.0,0.0,81,0.00,,,0.00,VWS V14.01,2013-05-01 12:39:00,
2013-05-01 08:42:00,63.3,57.4,29.59,West,268,0.0,0.0,81,0.00,,,0.00,VWS V14.01,2013-05-01 12:42:00,
2013-05-01 08:43:00,63.3,57.4,29.59,West,268,0.0,0.0,81,0.00,,,0.00,VWS V14.01,2013-05-01 12:43:00,
2013-05-01 08:45:00,63.3,57.4,29.59,West,268,0.0,0.0,81,0.00,,,0.00,VWS V14.01,2013-05-01 12:45:00,
2013-05-01 08:47:00,63.3,57.4,29.59,West,274,0.0,0.0,81,0.00,,,0.00,VWS V14.01,2013-05-01 12:47:00,
2013-05-01 08:48:00,63.3,57.4,29.59,West,274,0.0,0.0,81,0.00,,,0.00,VWS V14.01,2013-05-01 12:48:00,
2013-05-01 08:50:00,65.1,57.0,29.59,WNW,287,0.0,0.0,75,0.00,,,0.00,VWS V14.01,2013-05-01 12:50:00,
2013-05-01 08:52:00,65.1,57.0,29.59,NW,305,0.0,0.0,75,0.00,,,0.00,VWS V14.01,2013-05-01 12:52:00,
2013-05-01 08:54:00,65.5,57.0,29.59,WNW,298,0.0,0.0,74,0.00,,,0.00,VWS V14.01,2013-05-01 12:54:00,
2013-05-01 08:55:00,65.5,57.0,29.59,WNW,298,0.0,0.0,74,0.00,,,0.00,VWS V14.01,2013-05-01 12:55:00,
2013-05-01 08:57:00,65.5,57.0,29.59,WNW,294,0.0,0.0,74,0.00,,,0.00,VWS V14.01,2013-05-01 12:57:00,
2013-05-01 08:58:00,65.5,57.0,29.59,WNW,294,0.0,0.0,74,0.00,,,0.00,VWS V14.01,2013-05-01 12:58:00,
2013-05-01 08:59:00,66.0,57.1,29.59,WNW,294,0.0,0.0,73,0.00,,,0.00,VWS V14.01,2013-05-01 12:59:00,
2013-05-01 09:00:00,66.0,57.1,29.59,NW,304,0.0,0.0,73,0.00,,,0.00,VWS V14.01,2013-05-01 13:00:00,
2013-05-01 09:02:00,66.0,57.1,29.62,WNW,303,0.0,0.0,73,0.00,,,0.00,VWS V14.01,2013-05-01 13:02:00,
2013-05-01 09:03:00,66.0,57.1,29.62,West,271,0.0,0.0,73,0.00,,,0.00,VWS V14.01,2013-05-01 13:03:00,
2013-05-01 09:04:00,66.0,57.1,29.62,West,259,0.0,0.0,73,0.00,,,0.00,VWS V14.01,2013-05-01 13:04:00,
2013-05-01 09:05:00,66.0,57.1,29.62,West,259,0.0,0.0,73,0.00,,,0.00,VWS V14.01,2013-05-01 13:05:00,
2013-05-01 09:07:00,66.0,57.1,29.62,West,259,0.0,0.0,73,0.00,,,0.00,VWS V14.01,2013-05-01 13:07:00,
2013-05-01 09:08:00,66.0,57.1,29.62,West,259,0.0,0.0,73,0.00,,,0.00,VWS V14.01,2013-05-01 13:08:00,
2013-05-01 09:09:00,66.0,57.1,29.62,West,259,0.0,0.0,73,0.00,,,0.00,VWS V14.01,2013-05-01 13:09:00,
2013-05-01 09:10:00,66.7,57.0,29.62,WNW,284,0.0,0.0,71,0.00,,,0.00,VWS V14.01,2013-05-01 13:10:00,
2013-05-01 09:12:00,66.9,57.2,29.59,WNW,290,6.3,6.3,71,0.00,,,0.00,VWS V14.01,2013-05-01 13:12:00,
2013-05-01 09:13:00,66.9,57.2,29.59,NW,316,0.0,0.0,71,0.00,,,0.00,VWS V14.01,2013-05-01 13:13:00,
2013-05-01 09:14:00,66.9,57.2,29.59,NW,316,0.0,0.0,71,0.00,,,0.00,VWS V14.01,2013-05-01 13:14:00,
2013-05-01 09:15:00,66.9,57.2,29.59,NW,316,0.0,0.0,71,0.00,,,0.00,VWS V14.01,2013-05-01 13:15:00,
2013-05-01 09:18:00,67.3,57.6,29.59,West,264,4.9,4.9,71,0.00,,,0.00,VWS V14.01,2013-05-01 13:18:00,
2013-05-01 09:19:00,67.3,57.6,29.59,West,264,4.9,4.9,71,0.00,,,0.00,VWS V14.01,2013-05-01 13:19:00,
2013-05-01 09:20:00,67.3,57.6,29.59,West,264,4.9,4.9,71,0.00,,,0.00,VWS V14.01,2013-05-01 13:20:00,
2013-05-01 09:23:00,67.3,57.6,29.59,West,264,4.9,4.9,71,0.00,,,0.00,VWS V14.01,2013-05-01 13:23:00,
2013-05-01 09:24:00,67.3,57.6,29.59,West,264,4.9,4.9,71,0.00,,,0.00,VWS V14.01,2013-05-01 13:24:00,
2013-05-01 09:25:00,68.0,57.9,29.59,NW,321,0.0,0.0,70,0.00,,,0.00,VWS V14.01,2013-05-01 13:25:00,
2013-05-01 09:26:00,68.0,57.9,29.59,West,268,4.9,4.9,70,0.00,,,0.00,VWS V14.01,2013-05-01 13:26:00,
2013-05-01 09:28:00,68.2,58.0,29.59,NNW,344,0.0,3.6,70,0.00,,,0.00,VWS V14.01,2013-05-01 13:28:00,
2013-05-01 09:29:00,68.2,58.0,29.59,NNW,344,0.0,0.0,70,0.00,,,0.00,VWS V14.01,2013-05-01 13:29:00,
2013-05-01 09:30:00,68.4,58.2,29.59,WNW,298,3.6,3.6,70,0.00,,,0.00,VWS V14.01,2013-05-01 13:30:00,
2013-05-01 09:31:00,68.4,58.2,29.59,WNW,298,3.6,3.6,70,0.00,,,0.00,VWS V14.01,2013-05-01 13:31:00,
2013-05-01 09:33:00,68.4,58.2,29.59,NW,325,3.6,3.6,70,0.00,,,0.00,VWS V14.01,2013-05-01 13:33:00,
2013-05-01 09:34:00,68.4,58.2,29.59,NW,325,3.6,3.6,70,0.00,,,0.00,VWS V14.01,2013-05-01 13:34:00,
2013-05-01 09:35:00,68.4,58.2,29.59,NW,325,3.6,3.6,70,0.00,,,0.00,VWS V14.01,2013-05-01 13:35:00,
2013-05-01 09:36:00,68.4,58.2,29.59,NW,325,3.6,3.6,70,0.00,,,0.00,VWS V14.01,2013-05-01 13:36:00,
2013-05-01 09:38:00,68.4,58.2,29.59,NW,325,3.6,3.6,70,0.00,,,0.00,VWS V14.01,2013-05-01 13:38:00,
2013-05-01 09:40:00,68.4,58.2,29.59,WNW,296,3.1,3.1,70,0.00,,,0.00,VWS V14.01,2013-05-01 13:40:00,
2013-05-01 09:41:00,68.4,58.2,29.59,WNW,296,3.1,3.1,70,0.00,,,0.00,VWS V14.01,2013-05-01 13:41:00,
2013-05-01 09:43:00,69.3,58.7,29.59,WNW,296,3.1,3.1,69,0.00,,,0.00,VWS V14.01,2013-05-01 13:43:00,
2013-05-01 09:45:00,69.3,58.7,29.59,WNW,296,3.1,3.1,69,0.00,,,0.00,VWS V14.01,2013-05-01 13:45:00,
2013-05-01 09:46:00,69.3,58.7,29.59,NNW,343,5.4,5.4,69,0.00,,,0.00,VWS V14.01,2013-05-01 13:46:00,
2013-05-01 09:48:00,69.6,59.0,29.59,NNW,343,5.4,5.4,69,0.00,,,0.00,VWS V14.01,2013-05-01 13:48:00,
2013-05-01 09:50:00,69.6,59.0,29.59,NNW,343,5.4,5.4,69,0.00,,,0.00,VWS V14.01,2013-05-01 13:50:00,
2013-05-01 09:51:00,70.0,59.3,29.59,NNW,343,5.4,5.4,69,0.00,,,0.00,VWS V14.01,2013-05-01 13:51:00,
2013-05-01 09:52:00,70.0,59.3,29.59,NNW,343,5.4,5.4,69,0.00,,,0.00,VWS V14.01,2013-05-01 13:52:00,
2013-05-01 09:53:00,70.2,59.5,29.59,WNW,302,2.7,2.7,69,0.00,,,0.00,VWS V14.01,2013-05-01 13:53:00,
2013-05-01 09:55:00,70.2,59.5,29.59,WNW,286,3.6,3.6,69,0.00,,,0.00,VWS V14.01,2013-05-01 13:55:00,
2013-05-01 09:56:00,70.2,59.5,29.59,NNW,342,2.7,3.6,69,0.00,,,0.00,VWS V14.01,2013-05-01 13:56:00,
2013-05-01 09:57:00,70.3,59.7,29.59,WNW,287,5.8,5.8,69,0.00,,,0.00,VWS V14.01,2013-05-01 13:57:00,
2013-05-01 09:58:00,70.3,59.7,29.59,WNW,287,5.8,5.8,69,0.00,,,0.00,VWS V14.01,2013-05-01 13:58:00,
2013-05-01 10:00:00,70.7,60.0,29.59,WNW,287,5.8,5.8,69,0.00,,,0.00,VWS V14.01,2013-05-01 14:00:00,
2013-05-01 10:01:00,70.7,60.0,29.59,WNW,287,5.8,5.8,69,0.00,,,0.00,VWS V14.01,2013-05-01 14:01:00,
2013-05-01 10:02:00,70.7,60.0,29.59,WNW,287,5.8,5.8,69,0.00,,,0.00,VWS V14.01,2013-05-01 14:02:00,
2013-05-01 10:03:00,70.7,60.0,29.59,WNW,287,5.8,5.8,69,0.00,,,0.00,VWS V14.01,2013-05-01 14:03:00,
2013-05-01 10:06:00,70.7,60.0,29.59,NW,322,4.0,4.0,69,0.00,,,0.00,VWS V14.01,2013-05-01 14:06:00,
2013-05-01 10:07:00,70.7,60.0,29.59,NW,322,4.0,4.0,69,0.00,,,0.00,VWS V14.01,2013-05-01 14:07:00,
2013-05-01 10:08:00,71.6,60.9,29.59,NW,322,4.0,4.0,69,0.00,,,0.00,VWS V14.01,2013-05-01 14:08:00,
2013-05-01 10:11:00,71.6,60.9,29.59,NW,322,4.0,4.0,69,0.00,,,0.00,VWS V14.01,2013-05-01 14:11:00,
2013-05-01 10:12:00,71.6,60.9,29.59,NW,322,4.0,4.0,69,0.00,,,0.00,VWS V14.01,2013-05-01 14:12:00,
2013-05-01 10:13:00,71.6,60.9,29.59,NW,322,4.0,4.0,69,0.00,,,0.00,VWS V14.01,2013-05-01 14:13:00,
2013-05-01 10:16:00,72.3,61.2,29.59,NW,315,3.1,3.1,68,0.00,,,0.00,VWS V14.01,2013-05-01 14:16:00,
2013-05-01 10:17:00,72.3,61.2,29.59,NW,315,3.1,3.1,68,0.00,,,0.00,VWS V14.01,2013-05-01 14:17:00,
2013-05-01 10:18:00,72.3,61.2,29.59,NW,315,3.1,3.1,68,0.00,,,0.00,VWS V14.01,2013-05-01 14:18:00,
2013-05-01 10:21:00,72.5,61.3,29.59,West,276,2.7,2.7,68,0.00,,,0.00,VWS V14.01,2013-05-01 14:21:00,
2013-05-01 10:22:00,72.5,61.3,29.59,West,276,2.7,2.7,68,0.00,,,0.00,VWS V14.01,2013-05-01 14:22:00,
2013-05-01 10:23:00,72.7,61.5,29.59,West,276,2.7,2.7,68,0.00,,,0.00,VWS V14.01,2013-05-01 14:23:00,
2013-05-01 10:26:00,72.7,61.5,29.59,West,276,2.7,2.7,68,0.00,,,0.00,VWS V14.01,2013-05-01 14:26:00,
2013-05-01 10:27:00,72.7,61.5,29.59,West,275,2.7,2.7,68,0.00,,,0.00,VWS V14.01,2013-05-01 14:27:00,
2013-05-01 10:28:00,72.7,61.5,29.59,West,275,2.7,2.7,68,0.00,,,0.00,VWS V14.01,2013-05-01 14:28:00,
2013-05-01 10:29:00,72.7,61.5,29.59,West,275,2.7,2.7,68,0.00,,,0.00,VWS V14.01,2013-05-01 14:29:00,
2013-05-01 10:31:00,72.7,61.5,29.59,NW,306,2.7,2.7,68,0.00,,,0.00,VWS V14.01,2013-05-01 14:31:00,
2013-05-01 10:32:00,72.7,61.5,29.59,NW,305,0.0,0.0,68,0.00,,,0.00,VWS V14.01,2013-05-01 14:32:00,
2013-05-01 10:33:00,72.7,61.5,29.59,NW,305,0.0,0.0,68,0.00,,,0.00,VWS V14.01,2013-05-01 14:33:00,
2013-05-01 10:34:00,73.8,62.5,29.59,NW,305,0.0,0.0,68,0.00,,,0.00,VWS V14.01,2013-05-01 14:34:00,
2013-05-01 10:37:00,73.8,62.5,29.59,NNW,343,5.4,5.4,68,0.00,,,0.00,VWS V14.01,2013-05-01 14:37:00,
2013-05-01 10:38:00,73.8,62.5,29.62,NNW,343,5.4,5.4,68,0.00,,,0.00,VWS V14.01,2013-05-01 14:38:00,
2013-05-01 10:39:00,73.8,62.5,29.62,NW,314,2.2,2.2,68,0.00,,,0.00,VWS V14.01,2013-05-01 14:39:00,
2013-05-01 10:42:00,73.8,62.5,29.62,NW,318,0.0,2.2,68,0.00,,,0.00,VWS V14.01,2013-05-01 14:42:00,
2013-05-01 10:43:00,73.8,62.5,29.62,NW,318,0.0,0.0,68,0.00,,,0.00,VWS V14.01,2013-05-01 14:43:00,
2013-05-01 10:44:00,73.8,62.5,29.62,NW,318,0.0,0.0,68,0.00,,,0.00,VWS V14.01,2013-05-01 14:44:00,
2013-05-01 10:47:00,74.7,63.4,29.62,West,276,0.0,2.7,68,0.00,,,0.00,VWS V14.01,2013-05-01 14:47:00,
2013-05-01 10:48:00,74.7,63.4,29.62,West,276,0.0,2.7,68,0.00,,,0.00,VWS V14.01,2013-05-01 14:48:00,
2013-05-01 10:49:00,74.7,63.4,29.62,West,261,2.7,2.7,68,0.00,,,0.00,VWS V14.01,2013-05-01 14:49:00,
2013-05-01 10:52:00,74.7,63.4,29.62,NW,310,2.7,2.7,68,0.00,,,0.00,VWS V14.01,2013-05-01 14:52:00,
2013-05-01 10:53:00,74.7,63.4,29.62,NW,310,2.7,2.7,68,0.00,,,0.00,VWS V14.01,2013-05-01 14:53:00,
2013-05-01 10:54:00,75.4,63.7,29.62,NW,310,2.7,2.7,67,0.00,,,0.00,VWS V14.01,2013-05-01 14:54:00,
2013-05-01 10:57:00,75.4,63.7,29.62,NW,315,0.0,0.0,67,0.00,,,0.00,VWS V14.01,2013-05-01 14:57:00,
2013-05-01 10:58:00,75.4,63.7,29.62,NW,315,0.0,0.0,67,0.00,,,0.00,VWS V14.01,2013-05-01 14:58:00,
2013-05-01 10:59:00,75.4,63.7,29.62,West,275,0.0,0.0,67,0.00,,,0.00,VWS V14.01,2013-05-01 14:59:00,
2013-05-01 11:00:00,75.6,63.8,29.62,West,275,0.0,0.0,67,0.00,,,0.00,VWS V14.01,2013-05-01 15:00:00,
2013-05-01 11:02:00,75.6,63.8,29.62,NNW,342,3.6,3.6,67,0.00,,,0.00,VWS V14.01,2013-05-01 15:02:00,
2013-05-01 11:03:00,75.6,63.8,29.62,NNW,340,4.0,4.0,67,0.00,,,0.00,VWS V14.01,2013-05-01 15:03:00,
2013-05-01 11:04:00,75.6,63.8,29.62,NNW,340,4.0,4.0,67,0.00,,,0.00,VWS V14.01,2013-05-01 15:04:00,
2013-05-01 11:05:00,75.6,63.8,29.62,NW,316,5.4,5.4,67,0.00,,,0.00,VWS V14.01,2013-05-01 15:05:00,
2013-05-01 11:07:00,75.6,63.8,29.62,NW,312,3.1,3.1,67,0.00,,,0.00,VWS V14.01,2013-05-01 15:07:00,
2013-05-01 11:08:00,75.6,63.8,29.62,NW,312,3.1,3.1,67,0.00,,,0.00,VWS V14.01,2013-05-01 15:08:00,
2013-05-01 11:09:00,76.3,64.5,29.62,NW,325,5.4,5.4,67,0.00,,,0.00,VWS V14.01,2013-05-01 15:09:00,
2013-05-01 11:10:00,76.3,64.5,29.62,NW,325,5.4,5.4,67,0.00,,,0.00,VWS V14.01,2013-05-01 15:10:00,
2013-05-01 11:12:00,76.3,64.5,29.62,WNW,303,3.1,3.1,67,0.00,,,0.00,VWS V14.01,2013-05-01 15:12:00,
2013-05-01 11:13:00,76.3,64.5,29.62,WNW,289,2.2,2.2,67,0.00,,,0.00,VWS V14.01,2013-05-01 15:13:00,
2013-05-01 11:14:00,76.5,64.7,29.62,WNW,289,2.2,2.2,67,0.00,,,0.00,VWS V14.01,2013-05-01 15:14:00,
2013-05-01 11:15:00,76.5,64.7,29.62,WNW,289,2.2,2.2,67,0.00,,,0.00,VWS V14.01,2013-05-01 15:15:00,
2013-05-01 11:17:00,76.5,64.7,29.62,WSW,258,2.7,2.7,67,0.00,,,0.00,VWS V14.01,2013-05-01 15:17:00,
2013-05-01 11:18:00,76.5,64.7,29.62,WSW,258,2.7,2.7,67,0.00,,,0.00,VWS V14.01,2013-05-01 15:18:00,
2013-05-01 11:19:00,76.5,64.7,29.62,WSW,258,2.7,2.7,67,0.00,,,0.00,VWS V14.01,2013-05-01 15:19:00,
2013-05-01 11:20:00,76.5,64.7,29.62,WSW,258,2.7,2.7,67,0.00,,,0.00,VWS V14.01,2013-05-01 15:20:00,
2013-05-01 11:22:00,76.5,64.7,29.62,NW,313,4.9,4.9,67,0.00,,,0.00,VWS V14.01,2013-05-01 15:22:00,
2013-05-01 11:23:00,76.5,64.7,29.62,WSW,258,3.1,4.9,67,0.00,,,0.00,VWS V14.01,2013-05-01 15:23:00,
2013-05-01 11:24:00,76.5,64.7,29.62,WSW,258,3.1,3.1,67,0.00,,,0.00,VWS V14.01,2013-05-01 15:24:00,
2013-05-01 11:25:00,76.5,64.7,29.62,WSW,255,4.0,4.0,67,0.00,,,0.00,VWS V14.01,2013-05-01 15:25:00,
2013-05-01 11:28:00,77.2,65.4,29.62,NW,308,0.0,0.0,67,0.00,,,0.00,VWS V14.01,2013-05-01 15:28:00,
2013-05-01 11:30:00,77.2,65.4,29.62,NW,305,5.4,5.4,67,0.00,,,0.00,VWS V14.01,2013-05-01 15:30:00,
2013-05-01 11:31:00,77.2,65.4,29.62,West,280,3.1,5.4,67,0.00,,,0.00,VWS V14.01,2013-05-01 15:31:00,
2013-05-01 11:33:00,77.7,65.9,29.62,West,280,3.1,3.1,67,0.00,,,0.00,VWS V14.01,2013-05-01 15:33:00,
2013-05-01 11:34:00,77.7,65.9,29.62,West,280,3.1,3.1,67,0.00,,,0.00,VWS V14.01,2013-05-01 15:34:00,
2013-05-01 11:35:00,77.7,65.9,29.62,West,280,3.1,3.1,67,0.00,,,0.00,VWS V14.01,2013-05-01 15:35:00,
2013-05-01 11:36:00,77.7,65.9,29.62,NW,315,4.0,4.0,67,0.00,,,0.00,VWS V14.01,2013-05-01 15:36:00,
2013-05-01 11:38:00,77.7,65.9,29.62,West,274,5.8,5.8,67,0.00,,,0.00,VWS V14.01,2013-05-01 15:38:00,
2013-05-01 11:39:00,77.7,65.9,29.62,West,274,2.2,5.8,67,0.00,,,0.00,VWS V14.01,2013-05-01 15:39:00,
2013-05-01 11:40:00,77.7,65.9,29.62,West,274,2.2,2.2,67,0.00,,,0.00,VWS V14.01,2013-05-01 15:40:00,
2013-05-01 11:41:00,77.7,65.9,29.62,West,274,2.2,2.2,67,0.00,,,0.00,VWS V14.01,2013-05-01 15:41:00,
2013-05-01 11:43:00,77.7,65.9,29.62,West,274,2.2,2.2,67,0.00,,,0.00,VWS V14.01,2013-05-01 15:43:00,
2013-05-01 11:44:00,77.7,65.9,29.62,West,274,2.2,2.2,67,0.00,,,0.00,VWS V14.01,2013-05-01 15:44:00,
2013-05-01 11:45:00,77.7,65.9,29.62,West,274,2.2,2.2,67,0.00,,,0.00,VWS V14.01,2013-05-01 15:45:00,
2013-05-01 11:46:00,77.7,65.9,29.62,West,274,2.2,2.2,67,0.00,,,0.00,VWS V14.01,2013-05-01 15:46:00,
2013-05-01 11:48:00,77.7,65.9,29.62,NNW,337,3.6,3.6,67,0.00,,,0.00,VWS V14.01,2013-05-01 15:48:00,
2013-05-01 11:49:00,77.7,65.9,29.62,NNW,337,3.6,3.6,67,0.00,,,0.00,VWS V14.01,2013-05-01 15:49:00,
2013-05-01 11:50:00,78.4,66.6,29.62,NNW,337,3.6,3.6,67,0.00,,,0.00,VWS V14.01,2013-05-01 15:50:00,
2013-05-01 11:52:00,78.6,66.8,29.62,West,259,2.7,3.6,67,0.00,,,0.00,VWS V14.01,2013-05-01 15:52:00,
2013-05-01 11:53:00,78.6,66.8,29.62,NNW,332,4.9,4.9,67,0.00,,,0.00,VWS V14.01,2013-05-01 15:53:00,
2013-05-01 11:54:00,78.6,66.8,29.62,NNW,332,4.9,4.9,67,0.00,,,0.00,VWS V14.01,2013-05-01 15:54:00,
2013-05-01 11:55:00,78.6,66.8,29.62,North,357,0.0,4.9,67,0.00,,,0.00,VWS V14.01,2013-05-01 15:55:00,
2013-05-01 11:57:00,78.6,66.8,29.62,North,0,4.9,4.9,67,0.00,,,0.00,VWS V14.01,2013-05-01 15:57:00,
2013-05-01 11:59:00,78.6,66.8,29.62,NNW,328,3.1,3.1,67,0.00,,,0.00,VWS V14.01,2013-05-01 15:59:00,
2013-05-01 12:00:00,78.6,66.8,29.62,NNW,328,3.1,3.1,67,0.00,,,0.00,VWS V14.01,2013-05-01 16:00:00,
2013-05-01 12:02:00,78.6,66.8,29.62,NNW,328,3.1,3.1,67,0.00,,,0.00,VWS V14.01,2013-05-01 16:02:00,
2013-05-01 12:04:00,78.6,66.8,29.62,West,279,4.0,4.0,67,0.00,,,0.00,VWS V14.01,2013-05-01 16:04:00,
2013-05-01 12:05:00,78.6,66.8,29.62,SW,219,3.6,3.6,67,0.00,,,0.00,VWS V14.01,2013-05-01 16:05:00,
2013-05-01 12:06:00,78.6,66.8,29.62,SW,219,3.6,3.6,67,0.00,,,0.00,VWS V14.01,2013-05-01 16:06:00,
2013-05-01 12:07:00,79.2,66.8,29.62,SW,219,3.6,3.6,66,0.00,,,0.00,VWS V14.01,2013-05-01 16:07:00,
2013-05-01 12:09:00,79.2,66.8,29.62,SSW,205,3.1,3.1,66,0.00,,,0.00,VWS V14.01,2013-05-01 16:09:00,
2013-05-01 12:11:00,79.2,66.8,29.62,NW,311,0.0,3.1,66,0.00,,,0.00,VWS V14.01,2013-05-01 16:11:00,
2013-05-01 12:13:00,79.2,66.8,29.62,NW,311,0.0,0.0,66,0.00,,,0.00,VWS V14.01,2013-05-01 16:13:00,
2013-05-01 12:14:00,79.2,66.8,29.62,NNW,330,6.3,6.3,66,0.00,,,0.00,VWS V14.01,2013-05-01 16:14:00,
2013-05-01 12:16:00,79.5,67.2,29.62,NNW,330,6.3,6.3,66,0.00,,,0.00,VWS V14.01,2013-05-01 16:16:00,
2013-05-01 12:18:00,79.5,67.2,29.62,NNW,330,6.3,6.3,66,0.00,,,0.00,VWS V14.01,2013-05-01 16:18:00,
2013-05-01 12:19:00,79.5,67.2,29.62,West,259,2.2,2.7,66,0.00,,,0.00,VWS V14.01,2013-05-01 16:19:00,
2013-05-01 12:21:00,79.5,67.2,29.62,West,281,0.0,2.2,66,0.00,,,0.00,VWS V14.01,2013-05-01 16:21:00,
2013-05-01 12:23:00,79.5,67.2,29.62,NNW,340,4.0,4.0,66,0.00,,,0.00,VWS V14.01,2013-05-01 16:23:00,
2013-05-01 12:24:00,79.5,67.2,29.62,NNW,340,4.0,4.0,66,0.00,,,0.00,VWS V14.01,2013-05-01 16:24:00,
2013-05-01 12:26:00,79.5,67.2,29.62,North,5,3.1,4.0,66,0.00,,,0.00,VWS V14.01,2013-05-01 16:26:00,
2013-05-01 12:28:00,79.5,67.2,29.62,North,5,3.1,3.1,66,0.00,,,0.00,VWS V14.01,2013-05-01 16:28:00,
2013-05-01 12:29:00,79.5,67.2,29.62,NW,324,2.7,2.7,66,0.00,,,0.00,VWS V14.01,2013-05-01 16:29:00,
2013-05-01 12:30:00,79.5,67.2,29.62,NW,324,2.7,2.7,66,0.00,,,0.00,VWS V14.01,2013-05-01 16:30:00,
2013-05-01 12:31:00,79.5,67.2,29.62,NW,319,5.4,5.4,66,0.00,,,0.00,VWS V14.01,2013-05-01 16:31:00,
2013-05-01 12:33:00,80.1,67.7,29.62,WNW,296,2.7,2.7,66,0.00,,,0.00,VWS V14.01,2013-05-01 16:33:00,
2013-05-01 12:34:00,80.1,67.7,29.62,NW,310,4.0,4.0,66,0.00,,,0.00,VWS V14.01,2013-05-01 16:34:00,
2013-05-01 12:35:00,80.1,67.7,29.62,NW,310,4.0,4.0,66,0.00,,,0.00,VWS V14.01,2013-05-01 16:35:00,
2013-05-01 12:36:00,80.1,67.7,29.62,NW,310,4.0,4.0,66,0.00,,,0.00,VWS V14.01,2013-05-01 16:36:00,
2013-05-01 12:38:00,80.1,67.7,29.62,NW,310,4.0,4.0,66,0.00,,,0.00,VWS V14.01,2013-05-01 16:38:00,
2013-05-01 12:39:00,80.1,67.7,29.62,North,350,3.1,4.0,66,0.00,,,0.00,VWS V14.01,2013-05-01 16:39:00,
2013-05-01 12:40:00,80.1,67.7,29.62,North,5,4.0,4.0,66,0.00,,,0.00,VWS V14.01,2013-05-01 16:40:00,
2013-05-01 12:41:00,80.2,67.9,29.62,North,357,4.9,4.9,66,0.00,,,0.00,VWS V14.01,2013-05-01 16:41:00,
2013-05-01 12:42:00,80.2,67.9,29.62,North,357,4.9,4.9,66,0.00,,,0.00,VWS V14.01,2013-05-01 16:42:00,
2013-05-01 12:43:00,80.2,67.9,29.62,North,357,4.9,4.9,66,0.00,,,0.00,VWS V14.01,2013-05-01 16:43:00,
2013-05-01 12:44:00,80.2,67.9,29.62,North,0,3.6,3.6,66,0.00,,,0.00,VWS V14.01,2013-05-01 16:44:00,
2013-05-01 12:45:00,80.2,67.9,29.62,West,273,2.7,3.6,66,0.00,,,0.00,VWS V14.01,2013-05-01 16:45:00,
2013-05-01 12:47:00,80.2,67.9,29.62,WNW,287,0.0,3.1,66,0.00,,,0.00,VWS V14.01,2013-05-01 16:47:00,
2013-05-01 12:48:00,80.2,67.9,29.62,SW,220,2.7,2.7,66,0.00,,,0.00,VWS V14.01,2013-05-01 16:48:00,
2013-05-01 12:50:00,80.2,67.9,29.62,SW,220,2.7,2.7,66,0.00,,,0.00,VWS V14.01,2013-05-01 16:50:00,
2013-05-01 12:52:00,80.2,67.9,29.62,SW,220,2.7,2.7,66,0.00,,,0.00,VWS V14.01,2013-05-01 16:52:00,
2013-05-01 12:53:00,80.2,67.9,29.62,SW,220,2.7,2.7,66,0.00,,,0.00,VWS V14.01,2013-05-01 16:53:00,
2013-05-01 12:55:00,80.2,67.9,29.62,NNW,342,0.0,4.0,66,0.00,,,0.00,VWS V14.01,2013-05-01 16:55:00,
2013-05-01 12:57:00,80.2,67.9,29.62,SSW,210,3.6,3.6,66,0.00,,,0.00,VWS V14.01,2013-05-01 16:57:00,
2013-05-01 12:58:00,80.2,67.9,29.62,SSW,210,3.6,3.6,66,0.00,,,0.00,VWS V14.01,2013-05-01 16:58:00,
2013-05-01 13:00:00,80.8,68.4,29.62,NNW,342,6.3,6.3,66,0.00,,,0.00,VWS V14.01,2013-05-01 17:00:00,
2013-05-01 13:02:00,80.8,68.4,29.62,WSW,240,3.6,3.6,66,0.00,,,0.00,VWS V14.01,2013-05-01 17:02:00,
2013-05-01 13:03:00,80.8,68.4,29.62,West,274,3.6,3.6,66,0.00,,,0.00,VWS V14.01,2013-05-01 17:03:00,
2013-05-01 13:05:00,80.8,68.4,29.62,West,274,3.6,3.6,66,0.00,,,0.00,VWS V14.01,2013-05-01 17:05:00,
2013-05-01 13:06:00,81.1,68.7,29.62,West,274,3.6,3.6,66,0.00,,,0.00,VWS V14.01,2013-05-01 17:06:00,
2013-05-01 13:07:00,81.1,68.7,29.62,West,274,3.6,3.6,66,0.00,,,0.00,VWS V14.01,2013-05-01 17:07:00,
2013-05-01 13:08:00,81.1,68.7,29.62,WSW,243,3.6,3.6,66,0.00,,,0.00,VWS V14.01,2013-05-01 17:08:00,
2013-05-01 13:09:00,81.0,68.5,29.62,WSW,243,3.6,3.6,66,0.00,,,0.00,VWS V14.01,2013-05-01 17:09:00,
2013-05-01 13:10:00,81.0,68.5,29.62,NW,324,3.1,3.6,66,0.00,,,0.00,VWS V14.01,2013-05-01 17:10:00,
2013-05-01 13:11:00,81.0,68.5,29.62,NW,324,3.1,3.6,66,0.00,,,0.00,VWS V14.01,2013-05-01 17:11:00,
2013-05-01 13:12:00,81.0,68.5,29.62,NW,306,5.8,5.8,66,0.00,,,0.00,VWS V14.01,2013-05-01 17:12:00,
2013-05-01 13:13:00,81.0,68.5,29.62,NW,306,5.8,5.8,66,0.00,,,0.00,VWS V14.01,2013-05-01 17:13:00,
2013-05-01 13:14:00,81.0,68.5,29.62,West,280,0.0,0.0,66,0.00,,,0.00,VWS V14.01,2013-05-01 17:14:00,
2013-05-01 13:15:00,81.0,68.5,29.62,West,278,2.7,2.7,66,0.00,,,0.00,VWS V14.01,2013-05-01 17:15:00,
2013-05-01 13:16:00,81.0,68.5,29.62,West,278,2.7,2.7,66,0.00,,,0.00,VWS V14.01,2013-05-01 17:16:00,
2013-05-01 13:17:00,81.0,68.5,29.62,SSW,205,4.0,4.0,66,0.00,,,0.00,VWS V14.01,2013-05-01 17:17:00,
2013-05-01 13:18:00,81.0,68.5,29.62,SSW,205,4.0,4.0,66,0.00,,,0.00,VWS V14.01,2013-05-01 17:18:00,
2013-05-01 13:20:00,81.3,68.9,29.62,SSW,205,4.0,4.0,66,0.00,,,0.00,VWS V14.01,2013-05-01 17:20:00,
2013-05-01 13:21:00,81.3,68.9,29.62,NW,318,3.6,4.0,66,0.00,,,0.00,VWS V14.01,2013-05-01 17:21:00,
2013-05-01 13:23:00,81.3,68.9,29.62,NW,304,4.9,5.4,66,0.00,,,0.00,VWS V14.01,2013-05-01 17:23:00,
2013-05-01 13:25:00,81.5,69.1,29.62,NW,304,4.9,4.9,66,0.00,,,0.00,VWS V14.01,2013-05-01 17:25:00,
2013-05-01 13:26:00,81.5,69.1,29.62,NW,318,2.7,2.7,66,0.00,,,0.00,VWS V14.01,2013-05-01 17:26:00,
2013-05-01 13:28:00,81.5,69.1,29.62,NW,318,2.7,2.7,66,0.00,,,0.00,VWS V14.01,2013-05-01 17:28:00,
2013-05-01 13:30:00,81.5,69.1,29.62,WSW,244,4.9,4.9,66,0.00,,,0.00,VWS V14.01,2013-05-01 17:30:00,
2013-05-01 13:31:00,81.5,69.1,29.62,WSW,244,4.9,4.9,66,0.00,,,0.00,VWS V14.01,2013-05-01 17:31:00,
2013-05-01 13:33:00,81.5,69.1,29.62,NW,304,6.3,6.3,66,0.00,,,0.00,VWS V14.01,2013-05-01 17:33:00,
2013-05-01 13:35:00,81.7,69.2,29.62,NW,304,6.3,6.3,66,0.00,,,0.00,VWS V14.01,2013-05-01 17:35:00,
2013-05-01 13:36:00,81.5,69.1,29.62,NW,304,6.3,6.3,66,0.00,,,0.00,VWS V14.01,2013-05-01 17:36:00,
2013-05-01 13:38:00,81.5,69.1,29.62,West,264,0.0,5.8,66,0.00,,,0.00,VWS V14.01,2013-05-01 17:38:00,
2013-05-01 13:39:00,81.5,69.1,29.62,West,264,0.0,0.0,66,0.00,,,0.00,VWS V14.01,2013-05-01 17:39:00,
2013-05-01 13:40:00,81.5,69.1,29.62,West,264,0.0,0.0,66,0.00,,,0.00,VWS V14.01,2013-05-01 17:40:00,
2013-05-01 13:41:00,81.5,69.1,29.62,West,264,0.0,0.0,66,0.00,,,0.00,VWS V14.01,2013-05-01 17:41:00,
2013-05-01 13:43:00,81.5,69.1,29.62,SW,226,8.7,8.7,66,0.00,,,0.00,VWS V14.01,2013-05-01 17:43:00,
2013-05-01 13:44:00,81.5,69.1,29.62,SW,226,8.7,8.7,66,0.00,,,0.00,VWS V14.01,2013-05-01 17:44:00,
2013-05-01 13:45:00,81.5,69.1,29.62,SW,226,8.7,8.7,66,0.00,,,0.00,VWS V14.01,2013-05-01 17:45:00,
2013-05-01 13:46:00,81.5,69.1,29.62,SW,226,8.7,8.7,66,0.00,,,0.00,VWS V14.01,2013-05-01 17:46:00,
2013-05-01 13:48:00,82.0,69.6,29.62,NW,324,4.0,4.0,66,0.00,,,0.00,VWS V14.01,2013-05-01 17:48:00,
2013-05-01 13:49:00,82.0,69.6,29.62,WNW,301,8.3,8.3,66,0.00,,,0.00,VWS V14.01,2013-05-01 17:49:00,
2013-05-01 13:50:00,82.0,69.6,29.62,NW,320,6.3,6.3,66,0.00,,,0.00,VWS V14.01,2013-05-01 17:50:00,
2013-05-01 13:51:00,82.0,69.6,29.62,NW,320,6.3,6.3,66,0.00,,,0.00,VWS V14.01,2013-05-01 17:51:00,
2013-05-01 13:53:00,82.0,69.6,29.62,North,353,3.6,3.6,66,0.00,,,0.00,VWS V14.01,2013-05-01 17:53:00,
2013-05-01 13:54:00,82.0,69.6,29.62,North,353,3.6,3.6,66,0.00,,,0.00,VWS V14.01,2013-05-01 17:54:00,
2013-05-01 13:55:00,82.0,69.6,29.62,North,353,3.6,3.6,66,0.00,,,0.00,VWS V14.01,2013-05-01 17:55:00,
2013-05-01 13:56:00,82.0,69.6,29.62,North,353,3.6,3.6,66,0.00,,,0.00,VWS V14.01,2013-05-01 17:56:00,
2013-05-01 13:58:00,82.0,69.6,29.62,West,259,2.7,2.7,66,0.00,,,0.00,VWS V14.01,2013-05-01 17:58:00,
2013-05-01 13:59:00,81.9,69.4,29.62,West,259,2.7,2.7,66,0.00,,,0.00,VWS V14.01,2013-05-01 17:59:00,
2013-05-01 14:01:00,81.7,69.2,29.62,West,259,2.7,2.7,66,0.00,,,0.00,VWS V14.01,2013-05-01 18:01:00,
2013-05-01 14:03:00,81.7,69.2,29.62,NW,306,5.8,5.8,66,0.00,,,0.00,VWS V14.01,2013-05-01 18:03:00,
2013-05-01 14:04:00,81.7,69.2,29.62,West,264,5.8,5.8,66,0.00,,,0.00,VWS V14.01,2013-05-01 18:04:00,
2013-05-01 14:06:00,81.7,69.2,29.62,WNW,295,8.7,8.7,66,0.00,,,0.00,VWS V14.01,2013-05-01 18:06:00,
2013-05-01 14:09:00,82.2,69.7,29.62,WNW,295,8.7,8.7,66,0.00,,,0.00,VWS V14.01,2013-05-01 18:09:00,
2013-05-01 14:10:00,82.2,69.7,29.62,SW,226,7.6,7.6,66,0.00,,,0.00,VWS V14.01,2013-05-01 18:10:00,
2013-05-01 14:11:00,82.2,69.7,29.62,SSW,201,2.2,7.6,66,0.00,,,0.00,VWS V14.01,2013-05-01 18:11:00,
2013-05-01 14:12:00,82.2,69.7,29.62,SSW,201,2.2,2.2,66,0.00,,,0.00,VWS V14.01,2013-05-01 18:12:00,
2013-05-01 14:14:00,82.2,69.7,29.62,NW,323,5.8,5.8,66,0.00,,,0.00,VWS V14.01,2013-05-01 18:14:00,
2013-05-01 14:15:00,82.2,69.7,29.62,WNW,302,4.0,5.8,66,0.00,,,0.00,VWS V14.01,2013-05-01 18:15:00,
2013-05-01 14:16:00,82.2,69.7,29.62,WNW,302,4.0,4.0,66,0.00,,,0.00,VWS V14.01,2013-05-01 18:16:00,
2013-05-01 14:17:00,82.6,69.6,29.62,WNW,302,4.0,4.0,65,0.00,,,0.00,VWS V14.01,2013-05-01 18:17:00,
2013-05-01 14:19:00,82.6,69.6,29.62,WSW,251,5.8,5.8,65,0.00,,,0.00,VWS V14.01,2013-05-01 18:19:00,
2013-05-01 14:20:00,82.6,69.6,29.62,WSW,251,5.8,5.8,65,0.00,,,0.00,VWS V14.01,2013-05-01 18:20:00,
2013-05-01 14:21:00,82.6,69.6,29.62,SW,227,6.3,6.3,65,0.00,,,0.00,VWS V14.01,2013-05-01 18:21:00,
2013-05-01 14:22:00,82.6,69.6,29.62,SW,227,6.3,6.3,65,0.00,,,0.00,VWS V14.01,2013-05-01 18:22:00,
2013-05-01 14:24:00,82.6,69.6,29.62,WSW,246,5.8,5.8,65,0.00,,,0.00,VWS V14.01,2013-05-01 18:24:00,
2013-05-01 14:25:00,82.9,70.0,29.62,WSW,246,5.8,5.8,65,0.00,,,0.00,VWS V14.01,2013-05-01 18:25:00,
2013-05-01 14:26:00,82.9,70.0,29.62,WSW,246,5.8,5.8,65,0.00,,,0.00,VWS V14.01,2013-05-01 18:26:00,
2013-05-01 14:27:00,83.1,70.1,29.62,WSW,246,5.8,5.8,65,0.00,,,0.00,VWS V14.01,2013-05-01 18:27:00,
2013-05-01 14:29:00,83.1,70.1,29.62,West,277,2.7,2.7,65,0.00,,,0.00,VWS V14.01,2013-05-01 18:29:00,
2013-05-01 14:30:00,83.1,70.1,29.62,WNW,303,3.1,3.1,65,0.00,,,0.00,VWS V14.01,2013-05-01 18:30:00,
2013-05-01 14:31:00,83.1,70.1,29.62,WNW,303,3.1,3.1,65,0.00,,,0.00,VWS V14.01,2013-05-01 18:31:00,
2013-05-01 14:32:00,83.1,70.1,29.62,NNW,341,5.8,8.1,65,0.00,,,0.00,VWS V14.01,2013-05-01 18:32:00,
2013-05-01 14:34:00,83.1,70.1,29.62,NNW,341,5.8,5.8,65,0.00,,,0.00,VWS V14.01,2013-05-01 18:34:00,
2013-05-01 14:35:00,83.1,70.1,29.62,NNW,341,5.8,5.8,65,0.00,,,0.00,VWS V14.01,2013-05-01 18:35:00,
2013-05-01 14:36:00,83.1,70.1,29.62,NNW,341,5.8,5.8,65,0.00,,,0.00,VWS V14.01,2013-05-01 18:36:00,
2013-05-01 14:37:00,83.1,70.1,29.62,NNW,341,5.8,5.8,65,0.00,,,0.00,VWS V14.01,2013-05-01 18:37:00,
2013-05-01 14:38:00,83.1,70.1,29.62,NNW,341,5.8,5.8,65,0.00,,,0.00,VWS V14.01,2013-05-01 18:38:00,
2013-05-01 14:39:00,83.1,70.1,29.62,NW,314,5.8,5.8,65,0.00,,,0.00,VWS V14.01,2013-05-01 18:39:00,
2013-05-01 14:40:00,83.3,70.3,29.62,WNW,291,5.4,5.8,65,0.00,,,0.00,VWS V14.01,2013-05-01 18:40:00,
2013-05-01 14:41:00,83.3,70.3,29.62,WNW,291,5.4,5.4,65,0.00,,,0.00,VWS V14.01,2013-05-01 18:41:00,
2013-05-01 14:42:00,83.1,70.1,29.62,NW,319,3.6,3.6,65,0.00,,,0.00,VWS V14.01,2013-05-01 18:42:00,
2013-05-01 14:43:00,83.1,70.1,29.62,NW,319,3.6,3.6,65,0.00,,,0.00,VWS V14.01,2013-05-01 18:43:00,
2013-05-01 14:44:00,83.1,70.1,29.62,NW,319,3.6,3.6,65,0.00,,,0.00,VWS V14.01,2013-05-01 18:44:00,
2013-05-01 14:45:00,83.1,70.1,29.62,SW,226,3.6,3.6,65,0.00,,,0.00,VWS V14.01,2013-05-01 18:45:00,
2013-05-01 14:46:00,83.1,70.1,29.62,NW,320,4.0,4.0,65,0.00,,,0.00,VWS V14.01,2013-05-01 18:46:00,
2013-05-01 14:47:00,83.1,70.1,29.62,NW,320,4.0,4.0,65,0.00,,,0.00,VWS V14.01,2013-05-01 18:47:00,
2013-05-01 14:48:00,83.1,70.1,29.62,NW,320,4.0,4.0,65,0.00,,,0.00,VWS V14.01,2013-05-01 18:48:00,
2013-05-01 14:50:00,83.1,70.1,29.62,WNW,303,4.0,4.0,65,0.00,,,0.00,VWS V14.01,2013-05-01 18:50:00,
2013-05-01 14:51:00,83.3,70.3,29.62,WNW,303,4.0,4.0,65,0.00,,,0.00,VWS V14.01,2013-05-01 18:51:00,
2013-05-01 14:52:00,83.3,70.3,29.62,WNW,303,4.0,4.0,65,0.00,,,0.00,VWS V14.01,2013-05-01 18:52:00,
2013-05-01 14:53:00,83.3,70.3,29.62,North,353,3.1,3.1,65,0.00,,,0.00,VWS V14.01,2013-05-01 18:53:00,
2013-05-01 14:55:00,83.3,70.3,29.62,SW,231,3.6,3.6,65,0.00,,,0.00,VWS V14.01,2013-05-01 18:55:00,
2013-05-01 14:56:00,83.3,70.3,29.62,SW,234,2.7,2.7,65,0.00,,,0.00,VWS V14.01,2013-05-01 18:56:00,
2013-05-01 14:57:00,83.3,70.3,29.62,West,281,3.6,3.6,65,0.00,,,0.00,VWS V14.01,2013-05-01 18:57:00,
2013-05-01 14:58:00,83.3,70.3,29.62,WNW,294,8.1,8.1,65,0.00,,,0.00,VWS V14.01,2013-05-01 18:58:00,
2013-05-01 15:00:00,83.3,70.3,29.62,WNW,294,8.1,8.1,65,0.00,,,0.00,VWS V14.01,2013-05-01 19:00:00,
2013-05-01 15:01:00,83.3,70.3,29.62,NNW,346,6.3,8.1,65,0.00,,,0.00,VWS V14.01,2013-05-01 19:01:00,
2013-05-01 15:02:00,83.3,70.3,29.62,NNW,346,6.3,6.3,65,0.00,,,0.00,VWS V14.01,2013-05-01 19:02:00,
2013-05-01 15:03:00,83.3,70.3,29.62,NNW,346,6.3,6.3,65,0.00,,,0.00,VWS V14.01,2013-05-01 19:03:00,
2013-05-01 15:05:00,84.4,71.3,29.62,NW,306,3.1,6.3,65,0.00,,,0.00,VWS V14.01,2013-05-01 19:05:00,
2013-05-01 15:06:00,84.4,71.3,29.62,NW,306,3.1,3.1,65,0.00,,,0.00,VWS V14.01,2013-05-01 19:06:00,
2013-05-01 15:07:00,84.4,71.3,29.62,NNW,329,3.6,6.3,65,0.00,,,0.00,VWS V14.01,2013-05-01 19:07:00,
2013-05-01 15:08:00,84.4,71.3,29.62,NNW,329,3.6,6.3,65,0.00,,,0.00,VWS V14.01,2013-05-01 19:08:00,
2013-05-01 15:09:00,84.4,71.3,29.62,NNW,329,3.6,3.6,65,0.00,,,0.00,VWS V14.01,2013-05-01 19:09:00,
2013-05-01 15:10:00,84.4,71.3,29.62,NNW,329,3.6,3.6,65,0.00,,,0.00,VWS V14.01,2013-05-01 19:10:00,
2013-05-01 15:11:00,84.4,71.3,29.62,NNW,329,3.6,3.6,65,0.00,,,0.00,VWS V14.01,2013-05-01 19:11:00,
2013-05-01 15:12:00,84.4,71.3,29.62,WNW,294,8.3,8.3,65,0.00,,,0.00,VWS V14.01,2013-05-01 19:12:00,
2013-05-01 15:13:00,84.4,71.3,29.62,WNW,294,8.3,8.3,65,0.00,,,0.00,VWS V14.01,2013-05-01 19:13:00,
2013-05-01 15:14:00,84.4,71.3,29.62,WNW,294,8.3,8.3,65,0.00,,,0.00,VWS V14.01,2013-05-01 19:14:00,
2013-05-01 15:15:00,84.2,71.2,29.62,WSW,254,4.9,4.9,65,0.00,,,0.00,VWS V14.01,2013-05-01 19:15:00,
2013-05-01 15:16:00,84.2,71.2,29.62,WSW,254,4.9,4.9,65,0.00,,,0.00,VWS V14.01,2013-05-01 19:16:00,
2013-05-01 15:17:00,84.2,71.2,29.62,WSW,254,4.9,4.9,65,0.00,,,0.00,VWS V14.01,2013-05-01 19:17:00,
2013-05-01 15:18:00,84.2,71.2,29.62,WSW,254,4.9,4.9,65,0.00,,,0.00,VWS V14.01,2013-05-01 19:18:00,
2013-05-01 15:19:00,84.6,71.5,29.62,WSW,254,4.9,4.9,65,0.00,,,0.00,VWS V14.01,2013-05-01 19:19:00,
2013-05-01 15:20:00,84.6,71.5,29.62,West,260,4.9,4.9,65,0.00,,,0.00,VWS V14.01,2013-05-01 19:20:00,
2013-05-01 15:21:00,84.6,71.5,29.62,WSW,246,5.8,5.8,65,0.00,,,0.00,VWS V14.01,2013-05-01 19:21:00,
2013-05-01 15:22:00,84.6,71.5,29.62,SW,226,5.8,5.8,65,0.00,,,0.00,VWS V14.01,2013-05-01 19:22:00,
2013-05-01 15:23:00,84.6,71.5,29.62,SW,226,5.8,5.8,65,0.00,,,0.00,VWS V14.01,2013-05-01 19:23:00,
2013-05-01 15:24:00,84.6,71.5,29.62,SW,226,5.8,5.8,65,0.00,,,0.00,VWS V14.01,2013-05-01 19:24:00,
2013-05-01 15:26:00,84.6,71.5,29.62,NW,311,4.0,4.0,65,0.00,,,0.00,VWS V14.01,2013-05-01 19:26:00,
2013-05-01 15:27:00,85.3,72.2,29.62,NW,311,4.0,4.0,65,0.00,,,0.00,VWS V14.01,2013-05-01 19:27:00,
2013-05-01 15:28:00,85.3,72.2,29.62,West,275,6.3,6.3,65,0.00,,,0.00,VWS V14.01,2013-05-01 19:28:00,
2013-05-01 15:29:00,85.3,72.2,29.62,West,275,6.3,6.3,65,0.00,,,0.00,VWS V14.01,2013-05-01 19:29:00,
2013-05-01 15:31:00,85.3,72.2,29.62,WNW,285,5.4,6.3,65,0.00,,,0.00,VWS V14.01,2013-05-01 19:31:00,
2013-05-01 15:32:00,85.3,72.2,29.62,WNW,286,2.7,2.7,65,0.00,,,0.00,VWS V14.01,2013-05-01 19:32:00,
2013-05-01 15:33:00,85.3,72.2,29.62,WNW,286,2.7,2.7,65,0.00,,,0.00,VWS V14.01,2013-05-01 19:33:00,
2013-05-01 15:34:00,85.6,72.5,29.62,WNW,286,2.7,2.7,65,0.00,,,0.00,VWS V14.01,2013-05-01 19:34:00,
2013-05-01 15:36:00,85.5,72.4,29.62,West,261,2.7,2.7,65,0.00,,,0.00,VWS V14.01,2013-05-01 19:36:00,
2013-05-01 15:37:00,85.5,72.4,29.62,West,261,2.7,2.7,65,0.00,,,0.00,VWS V14.01,2013-05-01 19:37:00,
2013-05-01 15:38:00,85.5,72.4,29.62,NW,308,4.0,4.0,65,0.00,,,0.00,VWS V14.01,2013-05-01 19:38:00,
2013-05-01 15:39:00,85.5,72.4,29.62,NW,308,4.0,4.0,65,0.00,,,0.00,VWS V14.01,2013-05-01 19:39:00,
2013-05-01 15:41:00,85.5,72.4,29.62,WSW,238,5.8,5.8,65,0.00,,,0.00,VWS V14.01,2013-05-01 19:41:00,
2013-05-01 15:42:00,85.5,72.4,29.62,NW,322,3.1,3.1,65,0.00,,,0.00,VWS V14.01,2013-05-01 19:42:00,
2013-05-01 15:43:00,85.8,72.7,29.62,NW,322,3.1,3.1,65,0.00,,,0.00,VWS V14.01,2013-05-01 19:43:00,
2013-05-01 15:44:00,86.0,72.9,29.62,NW,322,3.1,3.1,65,0.00,,,0.00,VWS V14.01,2013-05-01 19:44:00,
2013-05-01 15:46:00,86.0,72.9,29.62,SW,229,6.3,6.3,65,0.00,,,0.00,VWS V14.01,2013-05-01 19:46:00,
2013-05-01 15:48:00,86.0,72.9,29.62,SW,231,4.0,6.3,65,0.00,,,0.00,VWS V14.01,2013-05-01 19:48:00,
2013-05-01 15:49:00,86.0,72.9,29.62,SW,229,4.9,4.9,65,0.00,,,0.00,VWS V14.01,2013-05-01 19:49:00,
2013-05-01 15:51:00,86.0,72.9,29.62,WSW,239,4.0,4.9,65,0.00,,,0.00,VWS V14.01,2013-05-01 19:51:00,
2013-05-01 15:52:00,86.0,72.9,29.62,WSW,239,4.0,4.9,65,0.00,,,0.00,VWS V14.01,2013-05-01 19:52:00,
2013-05-01 15:53:00,86.0,72.9,29.62,WSW,239,4.0,4.0,65,0.00,,,0.00,VWS V14.01,2013-05-01 19:53:00,
2013-05-01 15:54:00,86.0,72.9,29.62,WSW,239,4.0,4.0,65,0.00,,,0.00,VWS V14.01,2013-05-01 19:54:00,
2013-05-01 15:55:00,86.0,72.9,29.62,WSW,239,4.0,4.0,65,0.00,,,0.00,VWS V14.01,2013-05-01 19:55:00,
2013-05-01 15:56:00,86.0,72.9,29.62,NW,313,5.8,5.8,65,0.00,,,0.00,VWS V14.01,2013-05-01 19:56:00,
2013-05-01 15:58:00,86.0,72.9,29.62,NW,313,5.8,5.8,65,0.00,,,0.00,VWS V14.01,2013-05-01 19:58:00,
2013-05-01 15:59:00,86.0,72.9,29.62,West,270,6.7,6.7,65,0.00,,,0.00,VWS V14.01,2013-05-01 19:59:00,
2013-05-01 16:00:00,85.8,72.7,29.62,West,270,6.7,6.7,65,0.00,,,0.00,VWS V14.01,2013-05-01 20:00:00,
2013-05-01 16:02:00,85.8,72.7,29.62,SSW,196,3.1,3.1,65,0.00,,,0.00,VWS V14.01,2013-05-01 20:02:00,
2013-05-01 16:03:00,85.8,72.7,29.62,SW,224,3.1,3.1,65,0.00,,,0.00,VWS V14.01,2013-05-01 20:03:00,
2013-05-01 16:04:00,85.8,72.7,29.62,West,272,4.9,4.9,65,0.00,,,0.00,VWS V14.01,2013-05-01 20:04:00,
2013-05-01 16:05:00,85.8,72.7,29.62,West,272,4.9,4.9,65,0.00,,,0.00,VWS V14.01,2013-05-01 20:05:00,
2013-05-01 16:07:00,85.8,72.7,29.62,WSW,242,7.6,7.6,65,0.00,,,0.00,VWS V14.01,2013-05-01 20:07:00,
2013-05-01 16:08:00,85.8,72.7,29.62,WSW,242,7.6,7.6,65,0.00,,,0.00,VWS V14.01,2013-05-01 20:08:00,
2013-05-01 16:09:00,85.8,72.7,29.62,WSW,242,7.6,7.6,65,0.00,,,0.00,VWS V14.01,2013-05-01 20:09:00,
2013-05-01 16:11:00,86.9,73.7,29.62,WSW,241,6.7,6.7,65,0.00,,,0.00,VWS V14.01,2013-05-01 20:11:00,
2013-05-01 16:12:00,86.9,73.7,29.62,WSW,241,6.7,6.7,65,0.00,,,0.00,VWS V14.01,2013-05-01 20:12:00,
2013-05-01 16:13:00,87.1,73.9,29.62,WSW,244,3.1,6.7,65,0.00,,,0.00,VWS V14.01,2013-05-01 20:13:00,
2013-05-01 16:14:00,87.3,74.1,29.62,WSW,244,3.1,3.1,65,0.00,,,0.00,VWS V14.01,2013-05-01 20:14:00,
2013-05-01 16:15:00,87.3,74.1,29.62,WSW,244,3.1,3.1,65,0.00,,,0.00,VWS V14.01,2013-05-01 20:15:00,
2013-05-01 16:16:00,87.3,74.1,29.62,SW,230,5.8,5.8,65,0.00,,,0.00,VWS V14.01,2013-05-01 20:16:00,
2013-05-01 16:17:00,87.3,74.1,29.62,SW,230,5.8,5.8,65,0.00,,,0.00,VWS V14.01,2013-05-01 20:17:00,
2013-05-01 16:19:00,87.3,74.1,29.62,NNW,331,6.3,6.3,65,0.00,,,0.00,VWS V14.01,2013-05-01 20:19:00,
2013-05-01 16:20:00,87.3,74.1,29.62,NNW,331,6.3,6.3,65,0.00,,,0.00,VWS V14.01,2013-05-01 20:20:00,
2013-05-01 16:21:00,87.3,74.1,29.62,West,263,6.7,6.7,65,0.00,,,0.00,VWS V14.01,2013-05-01 20:21:00,
2013-05-01 16:22:00,87.3,74.1,29.62,NNE,17,5.8,5.8,65,0.00,,,0.00,VWS V14.01,2013-05-01 20:22:00,
2013-05-01 16:24:00,87.3,74.1,29.62,West,276,4.9,5.8,65,0.00,,,0.00,VWS V14.01,2013-05-01 20:24:00,
2013-05-01 16:25:00,87.3,74.1,29.62,West,276,2.7,2.7,65,0.00,,,0.00,VWS V14.01,2013-05-01 20:25:00,
2013-05-01 16:26:00,87.6,74.4,29.62,West,276,2.7,2.7,65,0.00,,,0.00,VWS V14.01,2013-05-01 20:26:00,
2013-05-01 16:27:00,87.6,74.4,29.62,West,276,2.7,2.7,65,0.00,,,0.00,VWS V14.01,2013-05-01 20:27:00,
2013-05-01 16:29:00,87.6,74.4,29.62,West,276,2.7,2.7,65,0.00,,,0.00,VWS V14.01,2013-05-01 20:29:00,
2013-05-01 16:30:00,87.6,74.4,29.62,West,276,2.7,2.7,65,0.00,,,0.00,VWS V14.01,2013-05-01 20:30:00,
2013-05-01 16:31:00,87.6,74.4,29.62,West,276,2.7,2.7,65,0.00,,,0.00,VWS V14.01,2013-05-01 20:31:00,
2013-05-01 16:32:00,87.6,74.4,29.62,WSW,237,2.7,2.7,65,0.00,,,0.00,VWS V14.01,2013-05-01 20:32:00,
2013-05-01 16:34:00,87.6,74.4,29.62,SW,229,6.3,6.3,65,0.00,,,0.00,VWS V14.01,2013-05-01 20:34:00,
2013-05-01 16:35:00,87.8,74.1,29.62,SW,229,6.3,6.3,64,0.00,,,0.00,VWS V14.01,2013-05-01 20:35:00,
2013-05-01 16:36:00,87.8,74.1,29.62,SW,229,6.3,6.3,64,0.00,,,0.00,VWS V14.01,2013-05-01 20:36:00,
2013-05-01 16:37:00,87.6,74.4,29.62,SW,233,6.3,6.3,65,0.00,,,0.00,VWS V14.01,2013-05-01 20:37:00,
2013-05-01 16:39:00,87.6,74.4,29.62,SW,233,6.3,6.3,65,0.00,,,0.00,VWS V14.01,2013-05-01 20:39:00,
2013-05-01 16:40:00,87.6,74.4,29.62,SSW,206,4.9,4.9,65,0.00,,,0.00,VWS V14.01,2013-05-01 20:40:00,
2013-05-01 16:41:00,87.6,74.4,29.62,WSW,248,8.3,8.3,65,0.00,,,0.00,VWS V14.01,2013-05-01 20:41:00,
2013-05-01 16:42:00,87.4,74.2,29.62,WSW,248,8.3,8.3,65,0.00,,,0.00,VWS V14.01,2013-05-01 20:42:00,
2013-05-01 16:44:00,87.4,74.2,29.62,WSW,248,8.3,8.3,65,0.00,,,0.00,VWS V14.01,2013-05-01 20:44:00,
2013-05-01 16:45:00,87.4,74.2,29.62,SW,233,5.4,5.4,65,0.00,,,0.00,VWS V14.01,2013-05-01 20:45:00,
2013-05-01 16:46:00,87.4,74.2,29.62,SW,233,5.4,5.4,65,0.00,,,0.00,VWS V14.01,2013-05-01 20:46:00,
2013-05-01 16:48:00,87.4,74.2,29.62,WNW,302,3.1,5.4,65,0.00,,,0.00,VWS V14.01,2013-05-01 20:48:00,
2013-05-01 16:49:00,87.4,74.2,29.62,WNW,302,3.1,3.1,65,0.00,,,0.00,VWS V14.01,2013-05-01 20:49:00,
2013-05-01 16:51:00,87.4,74.2,29.65,West,280,4.9,4.9,65,0.00,,,0.00,VWS V14.01,2013-05-01 20:51:00,
2013-05-01 16:53:00,87.4,74.2,29.65,WSW,242,5.8,5.8,65,0.00,,,0.00,VWS V14.01,2013-05-01 20:53:00,
2013-05-01 16:54:00,87.4,74.2,29.65,West,278,5.8,5.8,65,0.00,,,0.00,VWS V14.01,2013-05-01 20:54:00,
2013-05-01 16:55:00,87.4,74.2,29.65,West,278,5.8,5.8,65,0.00,,,0.00,VWS V14.01,2013-05-01 20:55:00,
2013-05-01 16:56:00,87.4,74.2,29.65,West,278,5.8,5.8,65,0.00,,,0.00,VWS V14.01,2013-05-01 20:56:00,
2013-05-01 16:57:00,87.4,74.2,29.65,West,278,5.8,5.8,65,0.00,,,0.00,VWS V14.01,2013-05-01 20:57:00,
2013-05-01 16:58:00,87.4,74.2,29.62,NW,317,5.4,5.8,65,0.00,,,0.00,VWS V14.01,2013-05-01 20:58:00,
2013-05-01 16:59:00,87.4,74.2,29.62,NW,306,8.1,8.1,65,0.00,,,0.00,VWS V14.01,2013-05-01 20:59:00,
2013-05-01 17:00:00,87.4,74.2,29.62,NW,306,8.1,8.1,65,0.00,,,0.00,VWS V14.01,2013-05-01 21:00:00,
2013-05-01 17:01:00,88.2,74.4,29.62,NW,306,8.1,8.1,64,0.00,,,0.00,VWS V14.01,2013-05-01 21:01:00,
2013-05-01 17:02:00,88.2,74.4,29.62,NW,306,8.1,8.1,64,0.00,,,0.00,VWS V14.01,2013-05-01 21:02:00,
2013-05-01 17:03:00,88.2,74.4,29.62,NW,306,8.1,8.1,64,0.00,,,0.00,VWS V14.01,2013-05-01 21:03:00,
2013-05-01 17:04:00,88.2,74.4,29.62,WSW,255,2.7,2.7,64,0.00,,,0.00,VWS V14.01,2013-05-01 21:04:00,
2013-05-01 17:05:00,88.2,74.4,29.62,WSW,255,3.1,3.1,64,0.00,,,0.00,VWS V14.01,2013-05-01 21:05:00,
2013-05-01 17:06:00,88.2,74.4,29.62,North,3,4.0,4.0,64,0.00,,,0.00,VWS V14.01,2013-05-01 21:06:00,
2013-05-01 17:07:00,88.2,74.4,29.62,West,267,4.0,4.0,64,0.00,,,0.00,VWS V14.01,2013-05-01 21:07:00,
2013-05-01 17:08:00,88.2,74.4,29.62,West,267,4.0,4.0,64,0.00,,,0.00,VWS V14.01,2013-05-01 21:08:00,
2013-05-01 17:10:00,88.2,74.4,29.62,West,267,4.0,4.0,64,0.00,,,0.00,VWS V14.01,2013-05-01 21:10:00,
2013-05-01 17:11:00,88.2,74.4,29.62,NW,310,8.1,8.1,64,0.00,,,0.00,VWS V14.01,2013-05-01 21:11:00,
2013-05-01 17:12:00,88.2,74.4,29.62,NW,310,8.1,8.1,64,0.00,,,0.00,VWS V14.01,2013-05-01 21:12:00,
2013-05-01 17:13:00,88.2,74.4,29.62,NW,310,8.1,8.1,64,0.00,,,0.00,VWS V14.01,2013-05-01 21:13:00,
2013-05-01 17:15:00,88.2,74.4,29.62,WSW,242,2.7,2.7,64,0.00,,,0.00,VWS V14.01,2013-05-01 21:15:00,
2013-05-01 17:17:00,88.2,74.4,29.62,West,274,3.6,3.6,64,0.00,,,0.00,VWS V14.01,2013-05-01 21:17:00,
2013-05-01 17:18:00,88.3,74.6,29.62,West,274,3.6,3.6,64,0.00,,,0.00,VWS V14.01,2013-05-01 21:18:00,
2013-05-01 17:20:00,88.3,74.6,29.62,West,274,3.6,3.6,64,0.00,,,0.00,VWS V14.01,2013-05-01 21:20:00,
2013-05-01 17:22:00,88.3,74.6,29.62,SW,234,5.8,5.8,64,0.00,,,0.00,VWS V14.01,2013-05-01 21:22:00,
2013-05-01 17:23:00,88.3,74.6,29.62,SW,234,5.8,5.8,64,0.00,,,0.00,VWS V14.01,2013-05-01 21:23:00,
2013-05-01 17:25:00,88.2,74.4,29.62,WSW,237,3.1,3.1,64,0.00,,,0.00,VWS V14.01,2013-05-01 21:25:00,
2013-05-01 17:27:00,88.0,74.3,29.62,West,275,10.5,10.5,64,0.00,,,0.00,VWS V14.01,2013-05-01 21:27:00,
2013-05-01 17:28:00,88.0,74.3,29.62,West,275,3.6,3.6,64,0.00,,,0.00,VWS V14.01,2013-05-01 21:28:00,
2013-05-01 17:30:00,88.2,74.4,29.62,SW,233,5.8,5.8,64,0.00,,,0.00,VWS V14.01,2013-05-01 21:30:00,
2013-05-01 17:32:00,88.2,74.4,29.62,WSW,237,2.2,2.2,64,0.00,,,0.00,VWS V14.01,2013-05-01 21:32:00,
2013-05-01 17:33:00,88.2,74.4,29.62,WSW,240,6.3,6.3,64,0.00,,,0.00,VWS V14.01,2013-05-01 21:33:00,
2013-05-01 17:35:00,88.2,74.4,29.62,SSW,209,6.3,6.3,64,0.00,,,0.00,VWS V14.01,2013-05-01 21:35:00,
2013-05-01 17:37:00,88.2,74.4,29.62,WNW,291,4.0,6.3,64,0.00,,,0.00,VWS V14.01,2013-05-01 21:37:00,
2013-05-01 17:38:00,88.2,74.4,29.62,West,265,4.0,4.0,64,0.00,,,0.00,VWS V14.01,2013-05-01 21:38:00,
2013-05-01 17:40:00,87.1,73.9,29.62,WSW,240,5.4,5.4,65,0.00,,,0.00,VWS V14.01,2013-05-01 21:40:00,
2013-05-01 17:41:00,87.1,73.9,29.62,WSW,240,5.4,5.4,65,0.00,,,0.00,VWS V14.01,2013-05-01 21:41:00,
2013-05-01 17:42:00,87.1,73.9,29.65,NW,324,8.7,8.7,65,0.00,,,0.00,VWS V14.01,2013-05-01 21:42:00,
2013-05-01 17:43:00,87.4,74.2,29.65,NW,324,8.7,8.7,65,0.00,,,0.00,VWS V14.01,2013-05-01 21:43:00,
2013-05-01 17:46:00,87.4,74.2,29.65,NW,324,8.7,8.7,65,0.00,,,0.00,VWS V14.01,2013-05-01 21:46:00,
2013-05-01 17:47:00,87.6,74.4,29.65,NW,324,8.7,8.7,65,0.00,,,0.00,VWS V14.01,2013-05-01 21:47:00,
2013-05-01 17:48:00,87.6,74.4,29.65,West,274,4.0,4.0,65,0.00,,,0.00,VWS V14.01,2013-05-01 21:48:00,
2013-05-01 17:49:00,87.6,74.4,29.65,West,274,4.0,4.0,65,0.00,,,0.00,VWS V14.01,2013-05-01 21:49:00,
2013-05-01 17:51:00,87.6,74.4,29.65,WNW,282,6.3,6.3,65,0.00,,,0.00,VWS V14.01,2013-05-01 21:51:00,
2013-05-01 17:52:00,87.6,74.4,29.65,WNW,282,6.3,6.3,65,0.00,,,0.00,VWS V14.01,2013-05-01 21:52:00,
2013-05-01 17:53:00,87.8,74.1,29.65,WNW,282,6.3,6.3,64,0.00,,,0.00,VWS V14.01,2013-05-01 21:53:00,
2013-05-01 17:54:00,87.8,74.1,29.65,WNW,282,6.3,6.3,64,0.00,,,0.00,VWS V14.01,2013-05-01 21:54:00,
2013-05-01 17:56:00,88.0,74.3,29.65,SW,217,4.0,4.0,64,0.00,,,0.00,VWS V14.01,2013-05-01 21:56:00,
2013-05-01 17:57:00,88.0,74.3,29.65,SW,217,4.0,4.0,64,0.00,,,0.00,VWS V14.01,2013-05-01 21:57:00,
2013-05-01 17:58:00,88.0,74.3,29.65,SW,217,4.0,4.0,64,0.00,,,0.00,VWS V14.01,2013-05-01 21:58:00,
2013-05-01 17:59:00,88.0,74.3,29.65,SW,217,5.8,5.8,64,0.00,,,0.00,VWS V14.01,2013-05-01 21:59:00,
2013-05-01 18:01:00,88.0,74.3,29.65,SW,235,8.3,8.3,64,0.00,,,0.00,VWS V14.01,2013-05-01 22:01:00,
2013-05-01 18:02:00,88.0,74.3,29.65,SW,235,8.3,8.3,64,0.00,,,0.00,VWS V14.01,2013-05-01 22:02:00,
2013-05-01 18:03:00,88.0,74.3,29.65,South,189,4.0,4.0,64,0.00,,,0.00,VWS V14.01,2013-05-01 22:03:00,
2013-05-01 18:04:00,88.0,74.3,29.65,South,189,4.0,4.0,64,0.00,,,0.00,VWS V14.01,2013-05-01 22:04:00,
2013-05-01 18:06:00,88.0,74.3,29.65,WSW,238,5.8,5.8,64,0.00,,,0.00,VWS V14.01,2013-05-01 22:06:00,
2013-05-01 18:07:00,88.0,74.3,29.65,WSW,238,5.8,5.8,64,0.00,,,0.00,VWS V14.01,2013-05-01 22:07:00,
2013-05-01 18:08:00,88.0,74.3,29.65,SW,231,6.3,6.3,64,0.00,,,0.00,VWS V14.01,2013-05-01 22:08:00,
2013-05-01 18:09:00,86.7,73.6,29.65,SW,231,3.6,3.6,65,0.00,,,0.00,VWS V14.01,2013-05-01 22:09:00,
2013-05-01 18:12:00,86.5,73.4,29.65,SSW,208,6.3,6.3,65,0.00,,,0.00,VWS V14.01,2013-05-01 22:12:00,
2013-05-01 18:13:00,86.5,73.4,29.65,WSW,250,5.4,5.4,65,0.00,,,0.00,VWS V14.01,2013-05-01 22:13:00,
2013-05-01 18:14:00,86.5,73.4,29.65,WSW,250,5.4,5.4,65,0.00,,,0.00,VWS V14.01,2013-05-01 22:14:00,
2013-05-01 18:17:00,86.5,73.4,29.65,SW,214,6.7,6.7,65,0.00,,,0.00,VWS V14.01,2013-05-01 22:17:00,
2013-05-01 18:18:00,87.3,74.1,29.65,WSW,250,3.1,3.1,65,0.00,,,0.00,VWS V14.01,2013-05-01 22:18:00,
2013-05-01 18:19:00,87.3,74.1,29.65,WSW,250,3.1,3.1,65,0.00,,,0.00,VWS V14.01,2013-05-01 22:19:00,
2013-05-01 18:22:00,87.4,74.2,29.65,WSW,256,2.7,2.7,65,0.00,,,0.00,VWS V14.01,2013-05-01 22:22:00,
2013-05-01 18:23:00,87.4,74.2,29.65,WSW,256,5.4,5.4,65,0.00,,,0.00,VWS V14.01,2013-05-01 22:23:00,
2013-05-01 18:24:00,87.4,74.2,29.65,WSW,256,5.4,5.4,65,0.00,,,0.00,VWS V14.01,2013-05-01 22:24:00,
2013-05-01 18:27:00,87.4,74.2,29.65,WSW,243,4.0,4.0,65,0.00,,,0.00,VWS V14.01,2013-05-01 22:27:00,
2013-05-01 18:28:00,87.4,74.2,29.65,WSW,243,4.0,4.0,65,0.00,,,0.00,VWS V14.01,2013-05-01 22:28:00,
2013-05-01 18:29:00,87.4,74.2,29.65,WSW,243,4.0,4.0,65,0.00,,,0.00,VWS V14.01,2013-05-01 22:29:00,
2013-05-01 18:30:00,88.9,75.1,29.65,WSW,243,4.0,4.0,64,0.00,,,0.00,VWS V14.01,2013-05-01 22:30:00,
2013-05-01 18:32:00,88.9,75.1,29.65,South,191,4.0,6.3,64,0.00,,,0.00,VWS V14.01,2013-05-01 22:32:00,
2013-05-01 18:33:00,88.9,75.1,29.65,SW,227,3.6,4.0,64,0.00,,,0.00,VWS V14.01,2013-05-01 22:33:00,
2013-05-01 18:34:00,88.9,75.1,29.65,WSW,247,2.7,3.6,64,0.00,,,0.00,VWS V14.01,2013-05-01 22:34:00,
2013-05-01 18:35:00,89.2,75.5,29.65,WSW,247,2.7,2.7,64,0.00,,,0.00,VWS V14.01,2013-05-01 22:35:00,
2013-05-01 18:37:00,89.2,75.5,29.65,WSW,247,2.7,2.7,64,0.00,,,0.00,VWS V14.01,2013-05-01 22:37:00,
2013-05-01 18:38:00,89.2,75.5,29.65,West,267,0.0,2.7,64,0.00,,,0.00,VWS V14.01,2013-05-01 22:38:00,
2013-05-01 18:39:00,89.2,75.5,29.65,West,267,0.0,0.0,64,0.00,,,0.00,VWS V14.01,2013-05-01 22:39:00,
2013-05-01 18:40:00,89.2,75.5,29.65,West,267,0.0,0.0,64,0.00,,,0.00,VWS V14.01,2013-05-01 22:40:00,
2013-05-01 18:42:00,89.2,75.5,29.65,West,267,0.0,0.0,64,0.00,,,0.00,VWS V14.01,2013-05-01 22:42:00,
2013-05-01 18:43:00,89.2,75.5,29.65,SW,235,4.0,4.0,64,0.00,,,0.00,VWS V14.01,2013-05-01 22:43:00,
2013-05-01 18:44:00,89.6,75.8,29.65,SW,235,4.0,4.0,64,0.00,,,0.00,VWS V14.01,2013-05-01 22:44:00,
2013-05-01 18:45:00,89.6,75.8,29.65,SW,235,4.0,4.0,64,0.00,,,0.00,VWS V14.01,2013-05-01 22:45:00,
2013-05-01 18:47:00,89.4,75.6,29.65,SW,233,8.1,8.1,64,0.00,,,0.00,VWS V14.01,2013-05-01 22:47:00,
2013-05-01 18:48:00,89.4,75.6,29.65,SW,233,8.1,8.1,64,0.00,,,0.00,VWS V14.01,2013-05-01 22:48:00,
2013-05-01 18:49:00,89.4,75.6,29.65,SSW,213,3.1,3.1,64,0.00,,,0.00,VWS V14.01,2013-05-01 22:49:00,
2013-05-01 18:50:00,89.4,75.6,29.65,SSW,213,3.1,3.1,64,0.00,,,0.00,VWS V14.01,2013-05-01 22:50:00,
2013-05-01 18:52:00,89.4,75.6,29.65,SW,229,4.0,4.0,64,0.00,,,0.00,VWS V14.01,2013-05-01 22:52:00,
2013-05-01 18:53:00,89.4,75.6,29.65,SW,229,4.0,4.0,64,0.00,,,0.00,VWS V14.01,2013-05-01 22:53:00,
2013-05-01 18:54:00,89.4,75.6,29.65,SW,229,4.0,4.0,64,0.00,,,0.00,VWS V14.01,2013-05-01 22:54:00,
2013-05-01 18:55:00,89.4,75.6,29.65,SW,229,4.0,4.0,64,0.00,,,0.00,VWS V14.01,2013-05-01 22:55:00,
2013-05-01 18:57:00,87.1,73.9,29.65,West,266,2.7,2.7,65,0.00,,,0.00,VWS V14.01,2013-05-01 22:57:00,
2013-05-01 18:58:00,87.1,73.9,29.65,West,266,2.7,2.7,65,0.00,,,0.00,VWS V14.01,2013-05-01 22:58:00,
2013-05-01 18:59:00,87.1,73.9,29.65,West,277,2.7,4.9,65,0.00,,,0.00,VWS V14.01,2013-05-01 22:59:00,
2013-05-01 19:00:00,87.1,73.9,29.65,SW,214,3.1,3.1,65,0.00,,,0.00,VWS V14.01,2013-05-01 23:00:00,
2013-05-01 19:02:00,86.4,73.2,29.65,SW,214,3.1,3.1,65,0.00,,,0.00,VWS V14.01,2013-05-01 23:02:00,
2013-05-01 19:03:00,86.4,73.2,29.65,SW,214,3.1,3.1,65,0.00,,,0.00,VWS V14.01,2013-05-01 23:03:00,
2013-05-01 19:05:00,86.4,73.2,29.65,WSW,249,2.7,3.1,65,0.00,,,0.00,VWS V14.01,2013-05-01 23:05:00,
2013-05-01 19:07:00,84.9,71.8,29.65,SSW,211,7.6,7.6,65,0.00,,,0.00,VWS V14.01,2013-05-01 23:07:00,
2013-05-01 19:08:00,84.9,71.8,29.65,WSW,251,4.0,7.6,65,0.00,,,0.00,VWS V14.01,2013-05-01 23:08:00,
2013-05-01 19:10:00,84.2,71.2,29.65,West,275,3.6,3.6,65,0.00,,,0.00,VWS V14.01,2013-05-01 23:10:00,
2013-05-01 19:13:00,83.8,70.8,29.65,SW,225,3.6,3.6,65,0.00,,,0.00,VWS V14.01,2013-05-01 23:13:00,
2013-05-01 19:15:00,83.8,70.8,29.65,WSW,254,3.1,3.6,65,0.00,,,0.00,VWS V14.01,2013-05-01 23:15:00,
2013-05-01 19:16:00,83.8,70.8,29.65,WSW,254,3.1,3.1,65,0.00,,,0.00,VWS V14.01,2013-05-01 23:16:00,
2013-05-01 19:18:00,83.8,70.8,29.65,SW,230,5.4,5.4,65,0.00,,,0.00,VWS V14.01,2013-05-01 23:18:00,
2013-05-01 19:20:00,83.8,70.8,29.65,WSW,238,5.4,5.8,65,0.00,,,0.00,VWS V14.01,2013-05-01 23:20:00,
2013-05-01 19:21:00,83.8,70.8,29.65,WSW,238,5.4,5.4,65,0.00,,,0.00,VWS V14.01,2013-05-01 23:21:00,
2013-05-01 19:23:00,82.4,69.5,29.65,WSW,241,2.7,5.4,65,0.00,,,0.00,VWS V14.01,2013-05-01 23:23:00,
2013-05-01 19:25:00,82.4,69.5,29.65,WSW,247,2.7,2.7,65,0.00,,,0.00,VWS V14.01,2013-05-01 23:25:00,
2013-05-01 19:26:00,82.4,69.5,29.65,SSW,204,4.9,4.9,65,0.00,,,0.00,VWS V14.01,2013-05-01 23:26:00,
2013-05-01 19:28:00,81.9,69.4,29.65,WSW,244,4.0,4.0,66,0.00,,,0.00,VWS V14.01,2013-05-01 23:28:00,
2013-05-01 19:30:00,81.9,69.4,29.65,WSW,244,4.0,4.0,66,0.00,,,0.00,VWS V14.01,2013-05-01 23:30:00,
2013-05-01 19:31:00,81.9,69.4,29.65,WSW,244,4.0,4.0,66,0.00,,,0.00,VWS V14.01,2013-05-01 23:31:00,
2013-05-01 19:33:00,81.9,69.4,29.65,SW,233,2.7,2.7,66,0.00,,,0.00,VWS V14.01,2013-05-01 23:33:00,
2013-05-01 19:35:00,81.9,69.4,29.65,SW,236,4.9,4.9,66,0.00,,,0.00,VWS V14.01,2013-05-01 23:35:00,
2013-05-01 19:36:00,81.7,69.2,29.65,SW,236,4.9,4.9,66,0.00,,,0.00,VWS V14.01,2013-05-01 23:36:00,
2013-05-01 19:38:00,81.5,69.1,29.65,SW,219,3.6,4.9,66,0.00,,,0.00,VWS V14.01,2013-05-01 23:38:00,
2013-05-01 19:40:00,81.5,69.1,29.65,WSW,252,2.2,3.6,66,0.00,,,0.00,VWS V14.01,2013-05-01 23:40:00,
2013-05-01 19:41:00,81.5,69.1,29.65,WSW,252,2.7,2.7,66,0.00,,,0.00,VWS V14.01,2013-05-01 23:41:00,
2013-05-01 19:43:00,81.5,69.1,29.62,SW,225,3.1,3.1,66,0.00,,,0.00,VWS V14.01,2013-05-01 23:43:00,
2013-05-01 19:45:00,81.3,68.9,29.62,SW,230,4.0,4.0,66,0.00,,,0.00,VWS V14.01,2013-05-01 23:45:00,
2013-05-01 19:46:00,81.3,68.9,29.62,SW,230,4.0,4.0,66,0.00,,,0.00,VWS V14.01,2013-05-01 23:46:00,
2013-05-01 19:48:00,81.3,68.9,29.62,WNW,284,2.7,2.7,66,0.00,,,0.00,VWS V14.01,2013-05-01 23:48:00,
2013-05-01 19:50:00,81.3,68.9,29.62,SW,220,3.1,4.0,66,0.00,,,0.00,VWS V14.01,2013-05-01 23:50:00,
2013-05-01 19:51:00,81.3,68.9,29.62,SW,220,3.1,4.0,66,0.00,,,0.00,VWS V14.01,2013-05-01 23:51:00,
2013-05-01 19:53:00,81.3,68.9,29.62,WSW,256,2.2,2.7,66,0.00,,,0.00,VWS V14.01,2013-05-01 23:53:00,
2013-05-01 19:55:00,81.3,68.9,29.65,WSW,244,2.2,2.2,66,0.00,,,0.00,VWS V14.01,2013-05-01 23:55:00,
2013-05-01 19:56:00,81.3,68.9,29.65,WSW,244,2.2,2.2,66,0.00,,,0.00,VWS V14.01,2013-05-01 23:56:00,
2013-05-01 19:58:00,81.3,68.9,29.65,WSW,244,2.2,2.2,66,0.00,,,0.00,VWS V14.01,2013-05-01 23:58:00,
2013-05-01 20:01:00,81.3,68.9,29.65,WSW,251,3.6,3.6,66,0.00,,,0.00,VWS V14.01,2013-05-02 00:01:00,
2013-05-01 20:03:00,81.1,68.7,29.65,SW,215,4.0,4.0,66,0.00,,,0.00,VWS V14.01,2013-05-02 00:03:00,
2013-05-01 20:06:00,81.1,68.7,29.65,SW,215,2.7,2.7,66,0.00,,,0.00,VWS V14.01,2013-05-02 00:06:00,
2013-05-01 20:09:00,81.1,68.7,29.65,WSW,258,5.4,5.4,66,0.00,,,0.00,VWS V14.01,2013-05-02 00:09:00,
2013-05-01 20:11:00,81.1,68.7,29.65,WSW,258,5.4,5.4,66,0.00,,,0.00,VWS V14.01,2013-05-02 00:11:00,
2013-05-01 20:14:00,81.1,68.7,29.65,SW,220,0.0,0.0,66,0.00,,,0.00,VWS V14.01,2013-05-02 00:14:00,
2013-05-01 20:16:00,81.1,68.7,29.65,SW,220,2.7,2.7,66,0.00,,,0.00,VWS V14.01,2013-05-02 00:16:00,
2013-05-01 20:19:00,80.6,68.2,29.65,SW,220,2.2,2.2,66,0.00,,,0.00,VWS V14.01,2013-05-02 00:19:00,
2013-05-01 20:21:00,80.6,68.2,29.65,SW,220,2.2,2.2,66,0.00,,,0.00,VWS V14.01,2013-05-02 00:21:00,
2013-05-01 20:22:00,80.6,68.2,29.65,SW,220,2.2,2.2,66,0.00,,,0.00,VWS V14.01,2013-05-02 00:22:00,
2013-05-01 20:24:00,80.6,68.2,29.65,SW,220,0.0,0.0,66,0.00,,,0.00,VWS V14.01,2013-05-02 00:24:00,
2013-05-01 20:26:00,80.6,68.2,29.65,SW,220,2.7,2.7,66,0.00,,,0.00,VWS V14.01,2013-05-02 00:26:00,
2013-05-01 20:27:00,80.6,68.2,29.65,SW,220,2.7,2.7,66,0.00,,,0.00,VWS V14.01,2013-05-02 00:27:00,
2013-05-01 20:29:00,79.5,67.2,29.65,WSW,257,0.0,2.7,66,0.00,,,0.00,VWS V14.01,2013-05-02 00:29:00,
2013-05-01 20:30:00,79.2,66.8,29.65,WSW,257,0.0,0.0,66,0.00,,,0.00,VWS V14.01,2013-05-02 00:30:00,
2013-05-01 20:31:00,79.2,66.8,29.65,WSW,257,0.0,0.0,66,0.00,,,0.00,VWS V14.01,2013-05-02 00:31:00,
2013-05-01 20:32:00,78.8,66.5,29.65,WSW,257,0.0,0.0,66,0.00,,,0.00,VWS V14.01,2013-05-02 00:32:00,
2013-05-01 20:34:00,78.3,66.4,29.65,WSW,252,0.0,0.0,67,0.00,,,0.00,VWS V14.01,2013-05-02 00:34:00,
2013-05-01 20:35:00,78.3,66.4,29.65,WSW,252,0.0,0.0,67,0.00,,,0.00,VWS V14.01,2013-05-02 00:35:00,
2013-05-01 20:36:00,78.3,66.4,29.65,WSW,252,0.0,0.0,67,0.00,,,0.00,VWS V14.01,2013-05-02 00:36:00,
2013-05-01 20:37:00,78.3,66.4,29.65,WSW,252,0.0,0.0,67,0.00,,,0.00,VWS V14.01,2013-05-02 00:37:00,
2013-05-01 20:39:00,78.3,66.4,29.65,WSW,252,0.0,0.0,67,0.00,,,0.00,VWS V14.01,2013-05-02 00:39:00,
2013-05-01 20:40:00,78.3,66.4,29.65,WSW,252,0.0,0.0,67,0.00,,,0.00,VWS V14.01,2013-05-02 00:40:00,
2013-05-01 20:41:00,78.3,66.4,29.65,WSW,252,0.0,0.0,67,0.00,,,0.00,VWS V14.01,2013-05-02 00:41:00,
2013-05-01 20:42:00,78.3,66.4,29.65,WSW,252,0.0,0.0,67,0.00,,,0.00,VWS V14.01,2013-05-02 00:42:00,
2013-05-01 20:44:00,78.3,66.4,29.65,WSW,252,0.0,0.0,67,0.00,,,0.00,VWS V14.01,2013-05-02 00:44:00,
2013-05-01 20:45:00,76.5,64.7,29.65,WSW,252,0.0,0.0,67,0.00,,,0.00,VWS V14.01,2013-05-02 00:45:00,
2013-05-01 20:46:00,76.5,64.7,29.65,WSW,252,0.0,0.0,67,0.00,,,0.00,VWS V14.01,2013-05-02 00:46:00,
2013-05-01 20:47:00,76.5,64.7,29.65,WSW,252,0.0,0.0,67,0.00,,,0.00,VWS V14.01,2013-05-02 00:47:00,
2013-05-01 20:50:00,76.5,64.7,29.65,WSW,252,0.0,0.0,67,0.00,,,0.00,VWS V14.01,2013-05-02 00:50:00,
2013-05-01 20:51:00,76.5,64.7,29.65,WSW,252,0.0,0.0,67,0.00,,,0.00,VWS V14.01,2013-05-02 00:51:00,
2013-05-01 20:52:00,76.5,64.7,29.65,WSW,252,0.0,0.0,67,0.00,,,0.00,VWS V14.01,2013-05-02 00:52:00,
2013-05-01 20:53:00,76.5,64.7,29.68,WSW,252,0.0,0.0,67,0.00,,,0.00,VWS V14.01,2013-05-02 00:53:00,
2013-05-01 20:55:00,75.4,63.7,29.68,WSW,252,0.0,0.0,67,0.00,,,0.00,VWS V14.01,2013-05-02 00:55:00,
2013-05-01 20:56:00,75.0,63.3,29.68,WSW,252,0.0,0.0,67,0.00,,,0.00,VWS V14.01,2013-05-02 00:56:00,
2013-05-01 20:57:00,75.0,63.3,29.68,WSW,252,0.0,0.0,67,0.00,,,0.00,VWS V14.01,2013-05-02 00:57:00,
2013-05-01 20:58:00,75.0,63.3,29.68,WSW,252,0.0,0.0,67,0.00,,,0.00,VWS V14.01,2013-05-02 00:58:00,
2013-05-01 21:00:00,75.0,63.3,29.68,WSW,252,0.0,0.0,67,0.00,,,0.00,VWS V14.01,2013-05-02 01:00:00,
2013-05-01 21:01:00,75.0,63.3,29.68,WSW,252,0.0,0.0,67,0.00,,,0.00,VWS V14.01,2013-05-02 01:01:00,
2013-05-01 21:02:00,75.0,63.3,29.68,WSW,252,0.0,0.0,67,0.00,,,0.00,VWS V14.01,2013-05-02 01:02:00,
2013-05-01 21:03:00,74.1,62.5,29.68,WSW,252,0.0,0.0,67,0.00,,,0.00,VWS V14.01,2013-05-02 01:03:00,
2013-05-01 21:05:00,74.1,62.5,29.68,WSW,252,0.0,0.0,67,0.00,,,0.00,VWS V14.01,2013-05-02 01:05:00,
2013-05-01 21:06:00,74.1,62.5,29.68,WSW,252,0.0,0.0,67,0.00,,,0.00,VWS V14.01,2013-05-02 01:06:00,
2013-05-01 21:07:00,74.1,62.5,29.68,WSW,252,0.0,0.0,67,0.00,,,0.00,VWS V14.01,2013-05-02 01:07:00,
2013-05-01 21:08:00,74.1,62.5,29.68,WSW,252,0.0,0.0,67,0.00,,,0.00,VWS V14.01,2013-05-02 01:08:00,
2013-05-01 21:10:00,74.1,62.5,29.68,WSW,252,0.0,0.0,67,0.00,,,0.00,VWS V14.01,2013-05-02 01:10:00,
2013-05-01 21:11:00,73.0,61.9,29.68,WSW,252,0.0,0.0,68,0.00,,,0.00,VWS V14.01,2013-05-02 01:11:00,
2013-05-01 21:12:00,73.0,61.9,29.68,WSW,252,0.0,0.0,68,0.00,,,0.00,VWS V14.01,2013-05-02 01:12:00,
2013-05-01 21:13:00,73.0,61.9,29.68,WSW,252,0.0,0.0,68,0.00,,,0.00,VWS V14.01,2013-05-02 01:13:00,
2013-05-01 21:15:00,73.0,61.9,29.68,WSW,252,0.0,0.0,68,0.00,,,0.00,VWS V14.01,2013-05-02 01:15:00,
2013-05-01 21:16:00,73.0,61.9,29.68,WSW,252,0.0,0.0,68,0.00,,,0.00,VWS V14.01,2013-05-02 01:16:00,
2013-05-01 21:17:00,73.0,61.9,29.68,WSW,252,0.0,0.0,68,0.00,,,0.00,VWS V14.01,2013-05-02 01:17:00,
2013-05-01 21:18:00,72.3,61.2,29.68,WSW,252,0.0,0.0,68,0.00,,,0.00,VWS V14.01,2013-05-02 01:18:00,
2013-05-01 21:20:00,72.1,61.0,29.68,WSW,252,0.0,0.0,68,0.00,,,0.00,VWS V14.01,2013-05-02 01:20:00,
2013-05-01 21:21:00,72.0,60.8,29.68,WSW,252,0.0,0.0,68,0.00,,,0.00,VWS V14.01,2013-05-02 01:21:00,
2013-05-01 21:22:00,72.0,60.8,29.68,WSW,252,0.0,0.0,68,0.00,,,0.00,VWS V14.01,2013-05-02 01:22:00,
2013-05-01 21:23:00,71.8,60.7,29.68,WSW,252,0.0,0.0,68,0.00,,,0.00,VWS V14.01,2013-05-02 01:23:00,
2013-05-01 21:26:00,71.8,60.7,29.68,WSW,252,0.0,0.0,68,0.00,,,0.00,VWS V14.01,2013-05-02 01:26:00,
2013-05-01 21:27:00,71.8,60.7,29.68,WSW,252,0.0,0.0,68,0.00,,,0.00,VWS V14.01,2013-05-02 01:27:00,
2013-05-01 21:28:00,71.8,60.7,29.68,WSW,252,0.0,0.0,68,0.00,,,0.00,VWS V14.01,2013-05-02 01:28:00,
2013-05-01 21:31:00,71.8,60.7,29.68,WSW,252,0.0,0.0,68,0.00,,,0.00,VWS V14.01,2013-05-02 01:31:00,
2013-05-01 21:32:00,71.8,60.7,29.68,WSW,252,0.0,0.0,68,0.00,,,0.00,VWS V14.01,2013-05-02 01:32:00,
2013-05-01 21:33:00,71.8,60.7,29.68,WSW,252,0.0,0.0,68,0.00,,,0.00,VWS V14.01,2013-05-02 01:33:00,
2013-05-01 21:36:00,71.8,60.7,29.68,WSW,252,0.0,0.0,68,0.00,,,0.00,VWS V14.01,2013-05-02 01:36:00,
2013-05-01 21:37:00,70.3,59.7,29.68,WSW,252,0.0,0.0,69,0.00,,,0.00,VWS V14.01,2013-05-02 01:37:00,
2013-05-01 21:38:00,70.3,59.7,29.68,WSW,252,0.0,0.0,69,0.00,,,0.00,VWS V14.01,2013-05-02 01:38:00,
2013-05-01 21:41:00,70.3,59.7,29.68,WSW,252,0.0,0.0,69,0.00,,,0.00,VWS V14.01,2013-05-02 01:41:00,
2013-05-01 21:42:00,70.0,59.3,29.68,WSW,252,0.0,0.0,69,0.00,,,0.00,VWS V14.01,2013-05-02 01:42:00,
2013-05-01 21:43:00,70.0,59.3,29.68,WSW,252,0.0,0.0,69,0.00,,,0.00,VWS V14.01,2013-05-02 01:43:00,
2013-05-01 21:46:00,69.8,59.2,29.68,WSW,252,0.0,0.0,69,0.00,,,0.00,VWS V14.01,2013-05-02 01:46:00,
2013-05-01 21:47:00,69.6,59.0,29.68,WSW,252,0.0,0.0,69,0.00,,,0.00,VWS V14.01,2013-05-02 01:47:00,
2013-05-01 21:48:00,69.6,59.0,29.68,WSW,252,0.0,0.0,69,0.00,,,0.00,VWS V14.01,2013-05-02 01:48:00,
2013-05-01 21:51:00,69.6,59.0,29.68,WSW,252,0.0,0.0,69,0.00,,,0.00,VWS V14.01,2013-05-02 01:51:00,
2013-05-01 21:52:00,69.6,59.0,29.68,WSW,252,0.0,0.0,69,0.00,,,0.00,VWS V14.01,2013-05-02 01:52:00,
2013-05-01 21:53:00,69.6,59.0,29.68,WSW,252,0.0,0.0,69,0.00,,,0.00,VWS V14.01,2013-05-02 01:53:00,
2013-05-01 21:54:00,69.6,59.0,29.68,WSW,252,0.0,0.0,69,0.00,,,0.00,VWS V14.01,2013-05-02 01:54:00,
2013-05-01 21:56:00,69.6,59.0,29.68,WSW,252,0.0,0.0,69,0.00,,,0.00,VWS V14.01,2013-05-02 01:56:00,
2013-05-01 21:57:00,69.6,59.0,29.68,WSW,252,0.0,0.0,69,0.00,,,0.00,VWS V14.01,2013-05-02 01:57:00,
2013-05-01 21:58:00,69.6,59.0,29.68,WSW,252,0.0,0.0,69,0.00,,,0.00,VWS V14.01,2013-05-02 01:58:00,
2013-05-01 21:59:00,69.6,59.0,29.68,WSW,252,0.0,0.0,69,0.00,,,0.00,VWS V14.01,2013-05-02 01:59:00,
2013-05-01 22:01:00,68.9,58.7,29.68,WSW,252,0.0,0.0,70,0.00,,,0.00,VWS V14.01,2013-05-02 02:01:00,
2013-05-01 22:02:00,68.7,58.5,29.68,WSW,252,0.0,0.0,70,0.00,,,0.00,VWS V14.01,2013-05-02 02:02:00,
2013-05-01 22:03:00,68.7,58.5,29.68,WSW,252,0.0,0.0,70,0.00,,,0.00,VWS V14.01,2013-05-02 02:03:00,
2013-05-01 22:04:00,68.7,58.5,29.68,WSW,252,0.0,0.0,70,0.00,,,0.00,VWS V14.01,2013-05-02 02:04:00,
2013-05-01 22:06:00,68.5,58.4,29.68,WSW,252,0.0,0.0,70,0.00,,,0.00,VWS V14.01,2013-05-02 02:06:00,
2013-05-01 22:07:00,68.5,58.4,29.68,WSW,252,0.0,0.0,70,0.00,,,0.00,VWS V14.01,2013-05-02 02:07:00,
2013-05-01 22:08:00,68.5,58.4,29.68,WSW,252,0.0,0.0,70,0.00,,,0.00,VWS V14.01,2013-05-02 02:08:00,
2013-05-01 22:09:00,68.5,58.4,29.68,WSW,252,0.0,0.0,70,0.00,,,0.00,VWS V14.01,2013-05-02 02:09:00,
2013-05-01 22:11:00,68.2,58.0,29.68,WSW,252,0.0,0.0,70,0.00,,,0.00,VWS V14.01,2013-05-02 02:11:00,
2013-05-01 22:13:00,68.2,58.0,29.68,WSW,252,0.0,0.0,70,0.00,,,0.00,VWS V14.01,2013-05-02 02:13:00,
2013-05-01 22:14:00,68.2,58.0,29.68,WSW,252,0.0,0.0,70,0.00,,,0.00,VWS V14.01,2013-05-02 02:14:00,
2013-05-01 22:16:00,68.2,58.0,29.68,WSW,252,0.0,0.0,70,0.00,,,0.00,VWS V14.01,2013-05-02 02:16:00,
2013-05-01 22:18:00,68.2,58.0,29.68,WSW,252,0.0,0.0,70,0.00,,,0.00,VWS V14.01,2013-05-02 02:18:00,
2013-05-01 22:19:00,68.2,58.0,29.68,WSW,252,0.0,0.0,70,0.00,,,0.00,VWS V14.01,2013-05-02 02:19:00,
2013-05-01 22:21:00,68.2,58.0,29.68,WSW,252,0.0,0.0,70,0.00,,,0.00,VWS V14.01,2013-05-02 02:21:00,
2013-05-01 22:23:00,68.2,58.0,29.68,WSW,252,0.0,0.0,70,0.00,,,0.00,VWS V14.01,2013-05-02 02:23:00,
2013-05-01 22:24:00,68.2,58.0,29.68,WSW,252,0.0,0.0,70,0.00,,,0.00,VWS V14.01,2013-05-02 02:24:00,
2013-05-01 22:27:00,68.2,58.0,29.68,WSW,252,0.0,0.0,70,0.00,,,0.00,VWS V14.01,2013-05-02 02:27:00,
2013-05-01 22:28:00,67.5,57.7,29.68,WSW,252,0.0,0.0,71,0.00,,,0.00,VWS V14.01,2013-05-02 02:28:00,
2013-05-01 22:29:00,67.5,57.7,29.68,WSW,252,0.0,0.0,71,0.00,,,0.00,VWS V14.01,2013-05-02 02:29:00,
2013-05-01 22:32:00,67.5,57.7,29.68,WSW,252,0.0,0.0,71,0.00,,,0.00,VWS V14.01,2013-05-02 02:32:00,
2013-05-01 22:33:00,67.5,57.7,29.68,WSW,252,0.0,0.0,71,0.00,,,0.00,VWS V14.01,2013-05-02 02:33:00,
2013-05-01 22:34:00,67.5,57.7,29.68,WSW,252,0.0,0.0,71,0.00,,,0.00,VWS V14.01,2013-05-02 02:34:00,
2013-05-01 22:37:00,67.3,57.6,29.68,WSW,252,0.0,0.0,71,0.00,,,0.00,VWS V14.01,2013-05-02 02:37:00,
2013-05-01 22:38:00,67.3,57.6,29.68,WSW,252,0.0,0.0,71,0.00,,,0.00,VWS V14.01,2013-05-02 02:38:00,
2013-05-01 22:39:00,67.1,57.4,29.68,WSW,252,0.0,0.0,71,0.00,,,0.00,VWS V14.01,2013-05-02 02:39:00,
2013-05-01 22:40:00,67.1,57.4,29.68,WSW,252,0.0,0.0,71,0.00,,,0.00,VWS V14.01,2013-05-02 02:40:00,
2013-05-01 22:42:00,67.1,57.4,29.68,WSW,252,0.0,0.0,71,0.00,,,0.00,VWS V14.01,2013-05-02 02:42:00,
2013-05-01 22:43:00,67.1,57.4,29.68,WSW,252,0.0,0.0,71,0.00,,,0.00,VWS V14.01,2013-05-02 02:43:00,
2013-05-01 22:44:00,67.1,57.4,29.68,WSW,252,0.0,0.0,71,0.00,,,0.00,VWS V14.01,2013-05-02 02:44:00,
2013-05-01 22:45:00,67.1,57.4,29.68,WSW,252,0.0,0.0,71,0.00,,,0.00,VWS V14.01,2013-05-02 02:45:00,
2013-05-01 22:47:00,67.1,57.4,29.68,WSW,252,0.0,0.0,71,0.00,,,0.00,VWS V14.01,2013-05-02 02:47:00,
2013-05-01 22:49:00,67.1,57.4,29.68,WSW,252,0.0,0.0,71,0.00,,,0.00,VWS V14.01,2013-05-02 02:49:00,
2013-05-01 22:50:00,67.1,57.4,29.68,WSW,252,0.0,0.0,71,0.00,,,0.00,VWS V14.01,2013-05-02 02:50:00,
2013-05-01 22:52:00,66.7,57.4,29.68,WSW,252,0.0,0.0,72,0.00,,,0.00,VWS V14.01,2013-05-02 02:52:00,
2013-05-01 22:54:00,66.6,57.3,29.68,WSW,252,0.0,0.0,72,0.00,,,0.00,VWS V14.01,2013-05-02 02:54:00,
2013-05-01 22:55:00,66.6,57.3,29.68,WSW,252,0.0,0.0,72,0.00,,,0.00,VWS V14.01,2013-05-02 02:55:00,
2013-05-01 22:57:00,66.6,57.3,29.68,WSW,252,0.0,0.0,72,0.00,,,0.00,VWS V14.01,2013-05-02 02:57:00,
2013-05-01 22:59:00,66.6,57.3,29.68,WSW,252,0.0,0.0,72,0.00,,,0.00,VWS V14.01,2013-05-02 02:59:00,
2013-05-01 23:00:00,66.6,57.3,29.68,WSW,252,0.0,0.0,72,0.00,,,0.00,VWS V14.01,2013-05-02 03:00:00,
2013-05-01 23:01:00,66.6,57.3,29.68,WSW,252,0.0,0.0,72,0.00,,,0.00,VWS V14.01,2013-05-02 03:01:00,
2013-05-01 23:02:00,66.6,57.3,29.68,WSW,252,0.0,0.0,72,0.00,,,0.00,VWS V14.01,2013-05-02 03:02:00,
2013-05-01 23:04:00,66.4,57.1,29.68,WSW,252,0.0,0.0,72,0.00,,,0.00,VWS V14.01,2013-05-02 03:04:00,
2013-05-01 23:05:00,66.4,57.1,29.68,WSW,252,0.0,0.0,72,0.00,,,0.00,VWS V14.01,2013-05-02 03:05:00,
2013-05-01 23:06:00,66.4,57.1,29.68,WSW,252,0.0,0.0,72,0.00,,,0.00,VWS V14.01,2013-05-02 03:06:00,
2013-05-01 23:07:00,66.4,57.1,29.68,WSW,252,0.0,0.0,72,0.00,,,0.00,VWS V14.01,2013-05-02 03:07:00,
2013-05-01 23:10:00,66.4,57.1,29.68,WSW,252,0.0,0.0,72,0.00,,,0.00,VWS V14.01,2013-05-02 03:10:00,
2013-05-01 23:11:00,66.4,57.1,29.68,WSW,252,0.0,0.0,72,0.00,,,0.00,VWS V14.01,2013-05-02 03:11:00,
2013-05-01 23:12:00,66.4,57.1,29.68,WSW,252,0.0,0.0,72,0.00,,,0.00,VWS V14.01,2013-05-02 03:12:00,
2013-05-01 23:15:00,66.4,57.1,29.68,WSW,252,0.0,0.0,72,0.00,,,0.00,VWS V14.01,2013-05-02 03:15:00,
2013-05-01 23:16:00,66.2,56.9,29.68,WSW,252,0.0,0.0,72,0.00,,,0.00,VWS V14.01,2013-05-02 03:16:00,
2013-05-01 23:18:00,66.2,56.9,29.68,WSW,252,0.0,0.0,72,0.00,,,0.00,VWS V14.01,2013-05-02 03:18:00,
2013-05-01 23:20:00,66.2,56.9,29.68,WSW,252,0.0,0.0,72,0.00,,,0.00,VWS V14.01,2013-05-02 03:20:00,
2013-05-01 23:21:00,66.0,57.1,29.68,WSW,252,0.0,0.0,73,0.00,,,0.00,VWS V14.01,2013-05-02 03:21:00,
2013-05-01 23:23:00,66.0,57.1,29.68,WSW,252,0.0,0.0,73,0.00,,,0.00,VWS V14.01,2013-05-02 03:23:00,
2013-05-01 23:25:00,66.0,57.1,29.68,WSW,252,0.0,0.0,73,0.00,,,0.00,VWS V14.01,2013-05-02 03:25:00,
2013-05-01 23:26:00,66.0,57.1,29.68,WSW,252,0.0,0.0,73,0.00,,,0.00,VWS V14.01,2013-05-02 03:26:00,
2013-05-01 23:28:00,66.0,57.1,29.68,WSW,252,0.0,0.0,73,0.00,,,0.00,VWS V14.01,2013-05-02 03:28:00,
2013-05-01 23:30:00,66.0,57.1,29.68,WSW,252,0.0,0.0,73,0.00,,,0.00,VWS V14.01,2013-05-02 03:30:00,
2013-05-01 23:31:00,66.0,57.1,29.68,WSW,252,0.0,0.0,73,0.00,,,0.00,VWS V14.01,2013-05-02 03:31:00,
2013-05-01 23:32:00,66.0,57.1,29.68,WSW,252,0.0,0.0,73,0.00,,,0.00,VWS V14.01,2013-05-02 03:32:00,
2013-05-01 23:34:00,66.0,57.1,29.68,WSW,252,0.0,0.0,73,0.00,,,0.00,VWS V14.01,2013-05-02 03:34:00,
2013-05-01 23:35:00,66.0,57.1,29.68,WSW,252,0.0,0.0,73,0.00,,,0.00,VWS V14.01,2013-05-02 03:35:00,
2013-05-01 23:36:00,66.0,57.1,29.68,WSW,252,0.0,0.0,73,0.00,,,0.00,VWS V14.01,2013-05-02 03:36:00,
2013-05-01 23:37:00,66.0,57.1,29.68,WSW,252,0.0,0.0,73,0.00,,,0.00,VWS V14.01,2013-05-02 03:37:00,
2013-05-01 23:39:00,65.8,57.0,29.68,WSW,252,0.0,0.0,73,0.00,,,0.00,VWS V14.01,2013-05-02 03:39:00,
2013-05-01 23:40:00,65.8,57.0,29.68,WSW,252,0.0,0.0,73,0.00,,,0.00,VWS V14.01,2013-05-02 03:40:00,
2013-05-01 23:41:00,65.8,57.0,29.68,WSW,252,0.0,0.0,73,0.00,,,0.00,VWS V14.01,2013-05-02 03:41:00,
2013-05-01 23:42:00,65.8,57.0,29.68,WSW,252,0.0,0.0,73,0.00,,,0.00,VWS V14.01,2013-05-02 03:42:00,
2013-05-01 23:44:00,65.8,57.0,29.68,WSW,252,0.0,0.0,73,0.00,,,0.00,VWS V14.01,2013-05-02 03:44:00,
2013-05-01 23:46:00,65.8,57.0,29.68,WSW,252,0.0,0.0,73,0.00,,,0.00,VWS V14.01,2013-05-02 03:46:00,
2013-05-01 23:47:00,65.8,57.0,29.68,WSW,252,0.0,0.0,73,0.00,,,0.00,VWS V14.01,2013-05-02 03:47:00,
2013-05-01 23:49:00,65.8,57.0,29.68,WSW,252,0.0,0.0,73,0.00,,,0.00,VWS V14.01,2013-05-02 03:49:00,
2013-05-01 23:51:00,65.8,57.0,29.68,WSW,252,0.0,0.0,73,0.00,,,0.00,VWS V14.01,2013-05-02 03:51:00,
2013-05-01 23:52:00,65.8,57.0,29.68,WSW,252,0.0,0.0,73,0.00,,,0.00,VWS V14.01,2013-05-02 03:52:00,
2013-05-01 23:54:00,65.8,57.0,29.68,WSW,252,0.0,0.0,73,0.00,,,0.00,VWS V14.01,2013-05-02 03:54:00,
2013-05-01 23:56:00,66.0,57.1,29.68,WSW,252,0.0,0.0,73,0.00,,,0.00,VWS V14.01,2013-05-02 03:56:00,
2013-05-01 23:57:00,66.0,57.1,29.68,WSW,252,0.0,0.0,73,0.00,,,0.00,VWS V14.01,2013-05-02 03:57:00,
2013-05-01 23:59:00,66.0,57.1,29.68,WSW,251,0.0,0.0,73,0.00,,,0.00,VWS V14.01,2013-05-02 03:59:00,